Observation data for Amarillo 9 North Northeast on 07/20/2019      Previous  Date       Current Mesonet Observations  Soil Data  Daily Summary Page  Observations in Plain Language
KAM2 200500Z 18013KT 30/14 A299 RMK A01 T03020138  RH  037%=      5-min Rain = 0
KAM2 200501Z 18012KT 30/14 A299 RMK A01 T03020137  RH  037%=      5-min Rain = 0
KAM2 200502Z 18015KT 30/14 A299 RMK A01 T03020137  RH  037%=      5-min Rain = 0
KAM2 200503Z 18014KT 30/14 A299 RMK A01 T03020137  RH  037%=      5-min Rain = 0
KAM2 200504Z 18010G15KT 30/14 A299 RMK A01 T03030138  RH  037%=      5-min Rain = 0
KAM2 200505Z 18012G17KT 30/14 A299 RMK A01 T03020139  RH  037%=      5-min Rain = 0
KAM2 200506Z 18013KT 30/14 A299 RMK A01 T03020138  RH  037%=      5-min Rain = 0
KAM2 200507Z 18014KT 30/14 A299 RMK A01 T03020138  RH  037%=      5-min Rain = 0
KAM2 200508Z 18012KT 30/14 A299 RMK A01 T03010138  RH  037%=      5-min Rain = 0
KAM2 200509Z 18011KT 30/14 A299 RMK A01 T03010138  RH  037%=      5-min Rain = 0
KAM2 200510Z 18013KT 30/14 A299 RMK A01 T03010139  RH  037%=      5-min Rain = 0
KAM2 200511Z 18013KT 30/14 A299 RMK A01 T03010138  RH  037%=      5-min Rain = 0
KAM2 200512Z 18012KT 30/14 A299 RMK A01 T03020138  RH  037%=      5-min Rain = 0
KAM2 200513Z 18013G19KT 30/14 A299 RMK A01 T03010138  RH  037%=      5-min Rain = 0
KAM2 200514Z 18014KT 30/14 A299 RMK A01 T03020139  RH  037%=      5-min Rain = 0
KAM2 200515Z 18013KT 30/14 A299 RMK A01 T03020139  RH  037%=      5-min Rain = 0
KAM2 200516Z 18013G18KT 30/14 A299 RMK A01 T03020138  RH  037%=      5-min Rain = 0
KAM2 200517Z 18013KT 30/14 A299 RMK A01 T03020139  RH  037%=      5-min Rain = 0
KAM2 200518Z 18014G19KT 30/14 A299 RMK A01 T03020139  RH  037%=      5-min Rain = 0
KAM2 200519Z 18013KT 30/14 A299 RMK A01 T03020139  RH  037%=      5-min Rain = 0
KAM2 200520Z 18013KT 30/14 A299 RMK A01 T03020139  RH  037%=      5-min Rain = 0
KAM2 200521Z 18013KT 30/14 A299 RMK A01 T03020139  RH  037%=      5-min Rain = 0
KAM2 200522Z 18013KT 30/14 A299 RMK A01 T03010139  RH  037%=      5-min Rain = 0
KAM2 200523Z 18015G20KT 30/14 A299 RMK A01 T03010139  RH  037%=      5-min Rain = 0
KAM2 200524Z 18012KT 30/14 A299 RMK A01 T03020139  RH  037%=      5-min Rain = 0
KAM2 200525Z 18014KT 30/14 A299 RMK A01 T03020139  RH  037%=      5-min Rain = 0
KAM2 200526Z 18013G18KT 30/14 A299 RMK A01 T03020139  RH  037%=      5-min Rain = 0
KAM2 200527Z 18014KT 30/14 A299 RMK A01 T03020140  RH  037%=      5-min Rain = 0
KAM2 200528Z 18016KT 30/14 A299 RMK A01 T03020139  RH  037%=      5-min Rain = 0
KAM2 200529Z 18015KT 30/14 A299 RMK A01 T03020139  RH  037%=      5-min Rain = 0
KAM2 200530Z 18016KT 30/14 A299 RMK A01 T03030139  RH  037%=      5-min Rain = 0
KAM2 200531Z 18016KT 30/14 A299 RMK A01 T03040139  RH  037%=      5-min Rain = 0
KAM2 200532Z 18013G18KT 30/14 A299 RMK A01 T03040139  RH  037%=      5-min Rain = 0
KAM2 200533Z 18013KT 30/14 A2991 RMK A01 T03040140  RH  037%=      5-min Rain = 0
KAM2 200534Z 18014KT 30/14 A2991 RMK A01 T03030140  RH  037%=      5-min Rain = 0
KAM2 200535Z 18014G19KT 30/14 A299 RMK A01 T03030140  RH  037%=      5-min Rain = 0
KAM2 200536Z 18013KT 30/14 A299 RMK A01 T03030140  RH  037%=      5-min Rain = 0
KAM2 200537Z 18016KT 30/14 A299 RMK A01 T03020140  RH  037%=      5-min Rain = 0
KAM2 200538Z 18015KT 30/14 A299 RMK A01 T03020139  RH  037%=      5-min Rain = 0
KAM2 200539Z 18017G22KT 30/14 A299 RMK A01 T03030139  RH  037%=      5-min Rain = 0
KAM2 200540Z 18015G20KT 30/14 A299 RMK A01 T03030139  RH  037%=      5-min Rain = 0
KAM2 200541Z 17016KT 30/14 A299 RMK A01 T03030140  RH  037%=      5-min Rain = 0
KAM2 200542Z 17015KT 30/14 A299 RMK A01 T03030140  RH  037%=      5-min Rain = 0
KAM2 200543Z 17015KT 30/14 A2991 RMK A01 T03020140  RH  037%=      5-min Rain = 0
KAM2 200544Z 17015KT 30/14 A2991 RMK A01 T03010140  RH  037%=      5-min Rain = 0
KAM2 200545Z 18014KT 30/14 A299 RMK A01 T03010140  RH  037%=      5-min Rain = 0
KAM2 200546Z 18013KT 30/14 A299 RMK A01 T03000140  RH  038%=      5-min Rain = 0
KAM2 200547Z 18011KT 30/14 A2991 RMK A01 T03000141  RH  038%=      5-min Rain = 0
KAM2 200548Z 18014G19KT 30/14 A2991 RMK A01 T02980141  RH  038%=      5-min Rain = 0
KAM2 200549Z 17012KT 30/14 A2991 RMK A01 T02970140  RH  038%=      5-min Rain = 0
KAM2 200550Z 17013KT 30/14 A2991 RMK A01 T02970141  RH  039%=      5-min Rain = 0
KAM2 200551Z 17012KT 30/14 A2991 RMK A01 T02960141  RH  039%=      5-min Rain = 0
KAM2 200552Z 18012KT 30/14 A2991 RMK A01 T02960141  RH  039%=      5-min Rain = 0
KAM2 200553Z 18013G19KT 30/14 A2991 RMK A01 T02950141  RH  039%=      5-min Rain = 0
KAM2 200554Z 18014KT 29/14 A2991 RMK A01 T02940141  RH  039%=      5-min Rain = 0
KAM2 200555Z 18013KT 29/14 A2991 RMK A01 T02940140  RH  039%=      5-min Rain = 0
KAM2 200556Z 18015KT 29/14 A2991 RMK A01 T02940141  RH  039%=      5-min Rain = 0
KAM2 200557Z 18018KT 29/14 A299 RMK A01 T02940141  RH  039%=      5-min Rain = 0
KAM2 200558Z 18014KT 29/14 A299 RMK A01 T02940140  RH  039%=      5-min Rain = 0
KAM2 200559Z 18014KT 29/14 A299 RMK A01 T02940141  RH  039%=      5-min Rain = 0
KAM2 200600Z 17013KT 29/14 A2991 RMK A01 T02940142  RH  039%=      5-min Rain = 0
KAM2 200601Z 18011KT 29/14 A2991 RMK A01 T02930141  RH  039%=      5-min Rain = 0
KAM2 200602Z 17012KT 29/14 A2991 RMK A01 T02920142  RH  040%=      5-min Rain = 0
KAM2 200603Z 17012KT 29/14 A2991 RMK A01 T02910141  RH  040%=      5-min Rain = 0
KAM2 200604Z 18012KT 29/14 A2991 RMK A01 T02900141  RH  040%=      5-min Rain = 0
KAM2 200605Z 17012KT 29/14 A2991 RMK A01 T02890141  RH  040%=      5-min Rain = 0
KAM2 200606Z 17012KT 29/14 A2991 RMK A01 T02890142  RH  040%=      5-min Rain = 0
KAM2 200607Z 17013KT 29/14 A2991 RMK A01 T02890141  RH  040%=      5-min Rain = 0
KAM2 200608Z 17013KT 29/14 A2991 RMK A01 T02890141  RH  040%=      5-min Rain = 0
KAM2 200609Z 17013KT 29/14 A2991 RMK A01 T02890141  RH  040%=      5-min Rain = 0
KAM2 200610Z 17012KT 29/14 A2991 RMK A01 T02890141  RH  040%=      5-min Rain = 0
KAM2 200611Z 17012KT 29/14 A2991 RMK A01 T02880142  RH  041%=      5-min Rain = 0
KAM2 200612Z 17013KT 29/14 A2991 RMK A01 T02870142  RH  041%=      5-min Rain = 0
KAM2 200613Z 17012KT 29/14 A2991 RMK A01 T02870142  RH  041%=      5-min Rain = 0
KAM2 200614Z 17013KT 29/14 A2991 RMK A01 T02860142  RH  041%=      5-min Rain = 0
KAM2 200615Z 17013KT 29/14 A2991 RMK A01 T02850141  RH  041%=      5-min Rain = 0
KAM2 200616Z 18012KT 29/14 A2991 RMK A01 T02850141  RH  041%=      5-min Rain = 0
KAM2 200617Z 18012KT 29/14 A2991 RMK A01 T02860141  RH  041%=      5-min Rain = 0
KAM2 200618Z 17012KT 29/14 A2991 RMK A01 T02850141  RH  041%=      5-min Rain = 0
KAM2 200619Z 17011KT 29/14 A2991 RMK A01 T02850141  RH  041%=      5-min Rain = 0
KAM2 200620Z 17011KT 29/14 A2991 RMK A01 T02850141  RH  041%=      5-min Rain = 0
KAM2 200621Z 17011KT 28/14 A2991 RMK A01 T02840142  RH  042%=      5-min Rain = 0
KAM2 200622Z 17011KT 28/14 A2991 RMK A01 T02830142  RH  042%=      5-min Rain = 0
KAM2 200623Z 17012KT 28/14 A2991 RMK A01 T02820141  RH  042%=      5-min Rain = 0
KAM2 200624Z 17010KT 28/14 A2991 RMK A01 T02820142  RH  042%=      5-min Rain = 0
KAM2 200625Z 16010KT 28/14 A2991 RMK A01 T02810142  RH  043%=      5-min Rain = 0
KAM2 200626Z 16010KT 28/14 A2991 RMK A01 T02800142  RH  043%=      5-min Rain = 0
KAM2 200627Z 17011KT 28/14 A2991 RMK A01 T02780142  RH  043%=      5-min Rain = 0
KAM2 200628Z 17010KT 28/14 A2991 RMK A01 T02770142  RH  043%=      5-min Rain = 0
KAM2 200629Z 17010KT 28/14 A2991 RMK A01 T02770142  RH  044%=      5-min Rain = 0
KAM2 200630Z 17011KT 28/14 A2991 RMK A01 T02760142  RH  044%=      5-min Rain = 0
KAM2 200631Z 17011KT 28/14 A2991 RMK A01 T02760142  RH  044%=      5-min Rain = 0
KAM2 200632Z 17010KT 28/14 A2991 RMK A01 T02760142  RH  044%=      5-min Rain = 0
KAM2 200633Z 17010KT 28/14 A2991 RMK A01 T02760141  RH  044%=      5-min Rain = 0
KAM2 200634Z 17010KT 28/14 A2991 RMK A01 T02750142  RH  044%=      5-min Rain = 0
KAM2 200635Z 17011KT 27/14 A2991 RMK A01 T02740142  RH  044%=      5-min Rain = 0
KAM2 200636Z 18011KT 27/14 A2991 RMK A01 T02740141  RH  044%=      5-min Rain = 0
KAM2 200637Z 17010KT 27/14 A2991 RMK A01 T02740142  RH  044%=      5-min Rain = 0
KAM2 200638Z 18011KT 27/14 A2991 RMK A01 T02740142  RH  044%=      5-min Rain = 0
KAM2 200639Z 17013KT 27/14 A2991 RMK A01 T02740141  RH  044%=      5-min Rain = 0
KAM2 200640Z 18017KT 27/14 A2991 RMK A01 T02740141  RH  044%=      5-min Rain = 0
KAM2 200641Z 17015KT 28/14 A2991 RMK A01 T02780141  RH  043%=      5-min Rain = 0
KAM2 200642Z 17016G21KT 28/14 A2991 RMK A01 T02800141  RH  043%=      5-min Rain = 0
KAM2 200643Z 17015KT 28/14 A2991 RMK A01 T02810141  RH  042%=      5-min Rain = 0
KAM2 200644Z 17015KT 28/14 A2991 RMK A01 T02810142  RH  042%=      5-min Rain = 0
KAM2 200645Z 17013KT 28/14 A2991 RMK A01 T02810142  RH  043%=      5-min Rain = 0
KAM2 200646Z 17014KT 28/14 A2991 RMK A01 T02800142  RH  043%=      5-min Rain = 0
KAM2 200647Z 18014KT 28/14 A2991 RMK A01 T02800142  RH  043%=      5-min Rain = 0
KAM2 200648Z 17013G18KT 28/14 A2991 RMK A01 T02800142  RH  043%=      5-min Rain = 0
KAM2 200649Z 18014KT 28/14 A2991 RMK A01 T02800142  RH  043%=      5-min Rain = 0
KAM2 200650Z 18014KT 28/14 A2991 RMK A01 T02790142  RH  043%=      5-min Rain = 0
KAM2 200651Z 17014KT 28/14 A2991 RMK A01 T02790142  RH  043%=      5-min Rain = 0
KAM2 200652Z 17012KT 28/14 A2991 RMK A01 T02790142  RH  043%=      5-min Rain = 0
KAM2 200653Z 17012KT 28/14 A2991 RMK A01 T02780142  RH  044%=      5-min Rain = 0
KAM2 200654Z 17013KT 28/14 A2991 RMK A01 T02770142  RH  044%=      5-min Rain = 0
KAM2 200655Z 17012KT 28/14 A2991 RMK A01 T02770142  RH  044%=      5-min Rain = 0
KAM2 200656Z 17013KT 28/14 A2991 RMK A01 T02760142  RH  044%=      5-min Rain = 0
KAM2 200657Z 18012KT 28/14 A2991 RMK A01 T02760142  RH  044%=      5-min Rain = 0
KAM2 200658Z 17014KT 28/14 A2991 RMK A01 T02760142  RH  044%=      5-min Rain = 0
KAM2 200659Z 17015KT 28/14 A2991 RMK A01 T02760142  RH  044%=      5-min Rain = 0
KAM2 200700Z 17014G19KT 28/14 A2991 RMK A01 T02770141  RH  043%=      5-min Rain = 0
KAM2 200701Z 17017G22KT 28/14 A2991 RMK A01 T02770141  RH  043%=      5-min Rain = 0
KAM2 200702Z 17017KT 28/14 A2991 RMK A01 T02780141  RH  043%=      5-min Rain = 0
KAM2 200703Z 18018KT 28/14 A2991 RMK A01 T02790141  RH  043%=      5-min Rain = 0
KAM2 200704Z 17015KT 28/14 A2991 RMK A01 T02800141  RH  043%=      5-min Rain = 0
KAM2 200705Z 18014KT 28/14 A2991 RMK A01 T02800142  RH  043%=      5-min Rain = 0
KAM2 200706Z 18015KT 28/14 A2991 RMK A01 T02800142  RH  043%=      5-min Rain = 0
KAM2 200707Z 17013KT 28/14 A299 RMK A01 T02790142  RH  043%=      5-min Rain = 0
KAM2 200708Z 18013KT 28/14 A2991 RMK A01 T02780142  RH  043%=      5-min Rain = 0
KAM2 200709Z 18015KT 28/14 A299 RMK A01 T02780142  RH  043%=      5-min Rain = 0
KAM2 200710Z 18012KT 28/14 A299 RMK A01 T02780141  RH  043%=      5-min Rain = 0
KAM2 200711Z 18013KT 28/14 A299 RMK A01 T02780142  RH  043%=      5-min Rain = 0
KAM2 200712Z 18014KT 28/14 A299 RMK A01 T02770142  RH  044%=      5-min Rain = 0
KAM2 200713Z 18014KT 28/14 A299 RMK A01 T02770142  RH  044%=      5-min Rain = 0
KAM2 200714Z 18014G19KT 28/14 A299 RMK A01 T02770142  RH  044%=      5-min Rain = 0
KAM2 200715Z 18015KT 28/14 A299 RMK A01 T02770141  RH  043%=      5-min Rain = 0
KAM2 200716Z 18015KT 28/14 A299 RMK A01 T02770140  RH  043%=      5-min Rain = 0
KAM2 200717Z 18013KT 28/14 A299 RMK A01 T02780141  RH  043%=      5-min Rain = 0
KAM2 200718Z 18015G20KT 28/14 A299 RMK A01 T02780141  RH  043%=      5-min Rain = 0
KAM2 200719Z 18016G22KT 28/14 A299 RMK A01 T02780140  RH  043%=      5-min Rain = 0
KAM2 200720Z 18015KT 28/14 A299 RMK A01 T02790140  RH  043%=      5-min Rain = 0
KAM2 200721Z 18015G20KT 28/14 A299 RMK A01 T02790140  RH  042%=      5-min Rain = 0
KAM2 200722Z 18014KT 28/14 A299 RMK A01 T02790140  RH  042%=      5-min Rain = 0
KAM2 200723Z 18016KT 28/14 A299 RMK A01 T02790140  RH  043%=      5-min Rain = 0
KAM2 200724Z 18014KT 28/14 A299 RMK A01 T02780140  RH  043%=      5-min Rain = 0
KAM2 200725Z 18014KT 28/14 A2991 RMK A01 T02790140  RH  043%=      5-min Rain = 0
KAM2 200726Z 19014G19KT 28/14 A2991 RMK A01 T02780140  RH  043%=      5-min Rain = 0
KAM2 200727Z 19017KT 28/14 A299 RMK A01 T02780139  RH  043%=      5-min Rain = 0
KAM2 200728Z 19016KT 28/14 A299 RMK A01 T02790139  RH  042%=      5-min Rain = 0
KAM2 200729Z 19013G18KT 28/14 A299 RMK A01 T02800139  RH  042%=      5-min Rain = 0
KAM2 200730Z 19016KT 28/14 A299 RMK A01 T02800139  RH  042%=      5-min Rain = 0
KAM2 200731Z 18016G21KT 28/14 A299 RMK A01 T02800137  RH  042%=      5-min Rain = 0
KAM2 200732Z 19020KT 28/14 A299 RMK A01 T02810137  RH  041%=      5-min Rain = 0
KAM2 200733Z 18015KT 28/14 A299 RMK A01 T02820137  RH  041%=      5-min Rain = 0
KAM2 200734Z 18013G19KT 28/14 A299 RMK A01 T02820138  RH  041%=      5-min Rain = 0
KAM2 200735Z 18015KT 28/14 A299 RMK A01 T02820137  RH  041%=      5-min Rain = 0
KAM2 200736Z 18013KT 28/14 A299 RMK A01 T02820138  RH  041%=      5-min Rain = 0
KAM2 200737Z 19015KT 28/14 A2991 RMK A01 T02810138  RH  041%=      5-min Rain = 0
KAM2 200738Z 19016KT 28/14 A299 RMK A01 T02800137  RH  041%=      5-min Rain = 0
KAM2 200739Z 19017G22KT 28/14 A299 RMK A01 T02800136  RH  041%=      5-min Rain = 0
KAM2 200740Z 19019G24KT 28/14 A299 RMK A01 T02810135  RH  041%=      5-min Rain = 0
KAM2 200741Z 18019KT 28/14 A299 RMK A01 T02820135  RH  040%=      5-min Rain = 0
KAM2 200742Z 19017KT 28/14 A299 RMK A01 T02830135  RH  040%=      5-min Rain = 0
KAM2 200743Z 18015G20KT 28/14 A299 RMK A01 T02830135  RH  040%=      5-min Rain = 0
KAM2 200744Z 19016G22KT 28/14 A299 RMK A01 T02820135  RH  040%=      5-min Rain = 0
KAM2 200745Z 19021G26KT 28/14 A299 RMK A01 T02820135  RH  040%=      5-min Rain = 0
KAM2 200746Z 19020G28KT 28/13 A299 RMK A01 T02820134  RH  040%=      5-min Rain = 0
KAM2 200747Z 20022KT 28/13 A299 RMK A01 T02830134  RH  040%=      5-min Rain = 0
KAM2 200748Z 19016G22KT 28/14 A299 RMK A01 T02840135  RH  040%=      5-min Rain = 0
KAM2 200749Z 20018G24KT 28/13 A299 RMK A01 T02840134  RH  040%=      5-min Rain = 0
KAM2 200750Z 19019KT 28/13 A299 RMK A01 T02840134  RH  040%=      5-min Rain = 0
KAM2 200751Z 19018KT 28/13 A299 RMK A01 T02840134  RH  040%=      5-min Rain = 0
KAM2 200752Z 19017KT 28/13 A299 RMK A01 T02830134  RH  040%=      5-min Rain = 0
KAM2 200753Z 19018KT 28/13 A299 RMK A01 T02830134  RH  040%=      5-min Rain = 0
KAM2 200754Z 19021G27KT 28/13 A299 RMK A01 T02830134  RH  040%=      5-min Rain = 0
KAM2 200755Z 19018G24KT 28/13 A299 RMK A01 T02830133  RH  040%=      5-min Rain = 0
KAM2 200756Z 19018G23KT 28/13 A299 RMK A01 T02830133  RH  040%=      5-min Rain = 0
KAM2 200757Z 19015KT 28/13 A299 RMK A01 T02830134  RH  040%=      5-min Rain = 0
KAM2 200758Z 19015KT 28/13 A299 RMK A01 T02820134  RH  040%=      5-min Rain = 0
KAM2 200759Z 19016G22KT 28/13 A299 RMK A01 T02810134  RH  040%=      5-min Rain = 0
KAM2 200800Z 19018G23KT 28/13 A299 RMK A01 T02810134  RH  040%=      5-min Rain = 0
KAM2 200801Z 20017KT 28/13 A299 RMK A01 T02810133  RH  040%=      5-min Rain = 0
KAM2 200802Z 19018G23KT 28/13 A299 RMK A01 T02810132  RH  040%=      5-min Rain = 0
KAM2 200803Z 19016G21KT 28/13 A299 RMK A01 T02810132  RH  040%=      5-min Rain = 0
KAM2 200804Z 19017G22KT 28/13 A299 RMK A01 T02810132  RH  040%=      5-min Rain = 0
KAM2 200805Z 18019KT 28/13 A299 RMK A01 T02810132  RH  040%=      5-min Rain = 0
KAM2 200806Z 19017KT 28/13 A299 RMK A01 T02810132  RH  040%=      5-min Rain = 0
KAM2 200807Z 19018G25KT 28/13 A299 RMK A01 T02810132  RH  040%=      5-min Rain = 0
KAM2 200808Z 19018G23KT 28/13 A299 RMK A01 T02810132  RH  040%=      5-min Rain = 0
KAM2 200809Z 19016G21KT 28/13 A299 RMK A01 T02820132  RH  040%=      5-min Rain = 0
KAM2 200810Z 19020G30KT 28/13 A299 RMK A01 T02810132  RH  040%=      5-min Rain = 0
KAM2 200811Z 19017KT 28/13 A299 RMK A01 T02810132  RH  040%=      5-min Rain = 0
KAM2 200812Z 19019KT 28/13 A299 RMK A01 T02810132  RH  040%=      5-min Rain = 0
KAM2 200813Z 19018KT 28/13 A299 RMK A01 T02800131  RH  040%=      5-min Rain = 0
KAM2 200814Z 19017KT 28/13 A299 RMK A01 T02800131  RH  040%=      5-min Rain = 0
KAM2 200815Z 19017G22KT 28/13 A299 RMK A01 T02800131  RH  040%=      5-min Rain = 0
KAM2 200816Z 19017KT 28/13 A299 RMK A01 T02800131  RH  040%=      5-min Rain = 0
KAM2 200817Z 19016KT 28/13 A299 RMK A01 T02790131  RH  040%=      5-min Rain = 0
KAM2 200818Z 19017G22KT 28/13 A299 RMK A01 T02790131  RH  040%=      5-min Rain = 0
KAM2 200819Z 19017KT 28/13 A299 RMK A01 T02790131  RH  040%=      5-min Rain = 0
KAM2 200820Z 19015G22KT 28/13 A299 RMK A01 T02790131  RH  040%=      5-min Rain = 0
KAM2 200821Z 19020G25KT 28/13 A299 RMK A01 T02790131  RH  040%=      5-min Rain = 0
KAM2 200822Z 19019KT 28/13 A299 RMK A01 T02790129  RH  040%=      5-min Rain = 0
KAM2 200823Z 19018G24KT 28/13 A299 RMK A01 T02790129  RH  040%=      5-min Rain = 0
KAM2 200824Z 19019G25KT 28/13 A299 RMK A01 T02800130  RH  040%=      5-min Rain = 0
KAM2 200825Z 20020G27KT 28/13 A299 RMK A01 T02790129  RH  039%=      5-min Rain = 0
KAM2 200826Z 19017G22KT 28/13 A299 RMK A01 T02800130  RH  039%=      5-min Rain = 0
KAM2 200827Z 19018G23KT 28/13 A299 RMK A01 T02790130  RH  040%=      5-min Rain = 0
KAM2 200828Z 19021KT 28/13 A299 RMK A01 T02790129  RH  040%=      5-min Rain = 0
KAM2 200829Z 19018G23KT 28/13 A299 RMK A01 T02790129  RH  039%=      5-min Rain = 0
KAM2 200830Z 19022KT 28/13 A299 RMK A01 T02790129  RH  039%=      5-min Rain = 0
KAM2 200831Z 19021KT 28/13 A299 RMK A01 T02790129  RH  039%=      5-min Rain = 0
KAM2 200832Z 19020G25KT 28/13 A299 RMK A01 T02790128  RH  039%=      5-min Rain = 0
KAM2 200833Z 20019KT 28/13 A299 RMK A01 T02790128  RH  039%=      5-min Rain = 0
KAM2 200834Z 19018G28KT 28/13 A299 RMK A01 T02790129  RH  040%=      5-min Rain = 0
KAM2 200835Z 19022G27KT 28/13 A299 RMK A01 T02780128  RH  040%=      5-min Rain = 0
KAM2 200836Z 19020G27KT 28/13 A299 RMK A01 T02780128  RH  040%=      5-min Rain = 0
KAM2 200837Z 19023G29KT 28/13 A299 RMK A01 T02780127  RH  039%=      5-min Rain = 0
KAM2 200838Z 19021KT 28/13 A299 RMK A01 T02790127  RH  039%=      5-min Rain = 0
KAM2 200839Z 19021KT 28/13 A299 RMK A01 T02790127  RH  039%=      5-min Rain = 0
KAM2 200840Z 19017KT 28/13 A299 RMK A01 T02790128  RH  039%=      5-min Rain = 0
KAM2 200841Z 19018KT 28/13 A299 RMK A01 T02780128  RH  039%=      5-min Rain = 0
KAM2 200842Z 19017KT 28/13 A299 RMK A01 T02780128  RH  040%=      5-min Rain = 0
KAM2 200843Z 19015G22KT 28/13 A299 RMK A01 T02770128  RH  040%=      5-min Rain = 0
KAM2 200844Z 19018G24KT 28/13 A299 RMK A01 T02760128  RH  040%=      5-min Rain = 0
KAM2 200845Z 20019G26KT 28/13 A299 RMK A01 T02760128  RH  040%=      5-min Rain = 0
KAM2 200846Z 19023KT 28/13 A299 RMK A01 T02760128  RH  040%=      5-min Rain = 0
KAM2 200847Z 19017G22KT 28/13 A299 RMK A01 T02770127  RH  040%=      5-min Rain = 0
KAM2 200848Z 19016G25KT 28/13 A299 RMK A01 T02770128  RH  040%=      5-min Rain = 0
KAM2 200849Z 19021G26KT 28/13 A299 RMK A01 T02760127  RH  040%=      5-min Rain = 0
KAM2 200850Z 19019G24KT 28/13 A299 RMK A01 T02760127  RH  040%=      5-min Rain = 0
KAM2 200851Z 20021G29KT 28/13 A299 RMK A01 T02760127  RH  040%=      5-min Rain = 0
KAM2 200852Z 19024G29KT 28/13 A299 RMK A01 T02770126  RH  039%=      5-min Rain = 0
KAM2 200853Z 19022G27KT 28/13 A299 RMK A01 T02770127  RH  039%=      5-min Rain = 0
KAM2 200854Z 20021G26KT 28/13 A299 RMK A01 T02770127  RH  039%=      5-min Rain = 0
KAM2 200855Z 19021G28KT 28/13 A299 RMK A01 T02770126  RH  039%=      5-min Rain = 0
KAM2 200856Z 19019G24KT 28/13 A299 RMK A01 T02770126  RH  039%=      5-min Rain = 0
KAM2 200857Z 19019G25KT 28/13 A299 RMK A01 T02770126  RH  039%=      5-min Rain = 0
KAM2 200858Z 20019G25KT 28/13 A299 RMK A01 T02770126  RH  039%=      5-min Rain = 0
KAM2 200859Z 20020G25KT 28/13 A299 RMK A01 T02760126  RH  039%=      5-min Rain = 0
KAM2 200900Z 19019G27KT 28/13 A299 RMK A01 T02760126  RH  039%=      5-min Rain = 0
KAM2 200901Z 20023G29KT 28/13 A299 RMK A01 T02760126  RH  039%=      5-min Rain = 0
KAM2 200902Z 20018G23KT 28/13 A299 RMK A01 T02760125  RH  039%=      5-min Rain = 0
KAM2 200903Z 20020KT 28/13 A299 RMK A01 T02760126  RH  039%=      5-min Rain = 0
KAM2 200904Z 20022KT 28/13 A299 RMK A01 T02760126  RH  040%=      5-min Rain = 0
KAM2 200905Z 20021G27KT 28/13 A299 RMK A01 T02760126  RH  040%=      5-min Rain = 0
KAM2 200906Z 20015G22KT 28/13 A299 RMK A01 T02750126  RH  040%=      5-min Rain = 0
KAM2 200907Z 20019KT 27/13 A299 RMK A01 T02740126  RH  040%=      5-min Rain = 0
KAM2 200908Z 20021G27KT 27/13 A299 RMK A01 T02740126  RH  040%=      5-min Rain = 0
KAM2 200909Z 20023G28KT 27/13 A299 RMK A01 T02740125  RH  040%=      5-min Rain = 0
KAM2 200910Z 20018G24KT 28/13 A299 RMK A01 T02750125  RH  040%=      5-min Rain = 0
KAM2 200911Z 20022G27KT 28/13 A299 RMK A01 T02750126  RH  040%=      5-min Rain = 0
KAM2 200912Z 20021G29KT 28/13 A299 RMK A01 T02750125  RH  040%=      5-min Rain = 0
KAM2 200913Z 20023G28KT 28/13 A299 RMK A01 T02750125  RH  040%=      5-min Rain = 0
KAM2 200914Z 20023G28KT 28/13 A299 RMK A01 T02750126  RH  040%=      5-min Rain = 0
KAM2 200915Z 20022KT 28/13 A299 RMK A01 T02750125  RH  040%=      5-min Rain = 0
KAM2 200916Z 20022KT 28/13 A299 RMK A01 T02750125  RH  040%=      5-min Rain = 0
KAM2 200917Z 19018KT 28/13 A299 RMK A01 T02750126  RH  040%=      5-min Rain = 0
KAM2 200918Z 20022G28KT 27/13 A299 RMK A01 T02740126  RH  040%=      5-min Rain = 0
KAM2 200919Z 20018G24KT 27/13 A299 RMK A01 T02740126  RH  040%=      5-min Rain = 0
KAM2 200920Z 20017KT 27/13 A299 RMK A01 T02730126  RH  040%=      5-min Rain = 0
KAM2 200921Z 20020G25KT 27/13 A299 RMK A01 T02720126  RH  040%=      5-min Rain = 0
KAM2 200922Z 20020KT 27/13 A299 RMK A01 T02720125  RH  040%=      5-min Rain = 0
KAM2 200923Z 20020KT 27/13 A299 RMK A01 T02720125  RH  040%=      5-min Rain = 0
KAM2 200924Z 19020KT 27/13 A299 RMK A01 T02720125  RH  040%=      5-min Rain = 0
KAM2 200925Z 20021G26KT 27/13 A299 RMK A01 T02720125  RH  040%=      5-min Rain = 0
KAM2 200926Z 20020KT 27/13 A299 RMK A01 T02720125  RH  040%=      5-min Rain = 0
KAM2 200927Z 20017G23KT 27/13 A299 RMK A01 T02720125  RH  040%=      5-min Rain = 0
KAM2 200928Z 20021KT 27/13 A299 RMK A01 T02720126  RH  040%=      5-min Rain = 0
KAM2 200929Z 20020G27KT 27/13 A299 RMK A01 T02710126  RH  040%=      5-min Rain = 0
KAM2 200930Z 20019G24KT 27/13 A299 RMK A01 T02710125  RH  040%=      5-min Rain = 0
KAM2 200931Z 20019G24KT 27/13 A299 RMK A01 T02710126  RH  040%=      5-min Rain = 0
KAM2 200932Z 20017G22KT 27/13 A299 RMK A01 T02710126  RH  041%=      5-min Rain = 0
KAM2 200933Z 20018KT 27/13 A299 RMK A01 T02700126  RH  041%=      5-min Rain = 0
KAM2 200934Z 20018KT 27/13 A299 RMK A01 T02700126  RH  041%=      5-min Rain = 0
KAM2 200935Z 20018G23KT 27/13 A299 RMK A01 T02690126  RH  041%=      5-min Rain = 0
KAM2 200936Z 20019G24KT 27/13 A299 RMK A01 T02680125  RH  041%=      5-min Rain = 0
KAM2 200937Z 20019KT 27/13 A299 RMK A01 T02690125  RH  041%=      5-min Rain = 0
KAM2 200938Z 20022G27KT 27/13 A299 RMK A01 T02690125  RH  041%=      5-min Rain = 0
KAM2 200939Z 20019G24KT 27/13 A299 RMK A01 T02690125  RH  041%=      5-min Rain = 0
KAM2 200940Z 19018KT 27/13 A299 RMK A01 T02690125  RH  041%=      5-min Rain = 0
KAM2 200941Z 19018KT 27/13 A299 RMK A01 T02690126  RH  041%=      5-min Rain = 0
KAM2 200942Z 20017KT 27/13 A299 RMK A01 T02680125  RH  041%=      5-min Rain = 0
KAM2 200943Z 20018G23KT 27/13 A299 RMK A01 T02680125  RH  041%=      5-min Rain = 0
KAM2 200944Z 20017G22KT 27/13 A299 RMK A01 T02680126  RH  041%=      5-min Rain = 0
KAM2 200945Z 20017KT 27/13 A299 RMK A01 T02670125  RH  041%=      5-min Rain = 0
KAM2 200946Z 20017KT 27/13 A299 RMK A01 T02680126  RH  041%=      5-min Rain = 0
KAM2 200947Z 20020G29KT 27/13 A299 RMK A01 T02670125  RH  041%=      5-min Rain = 0
KAM2 200948Z 20017G24KT 27/13 A299 RMK A01 T02670126  RH  041%=      5-min Rain = 0
KAM2 200949Z 20020KT 27/13 A299 RMK A01 T02670125  RH  041%=      5-min Rain = 0
KAM2 200950Z 20015KT 27/13 A299 RMK A01 T02670125  RH  041%=      5-min Rain = 0
KAM2 200951Z 20019G26KT 27/13 A299 RMK A01 T02670126  RH  041%=      5-min Rain = 0
KAM2 200952Z 20023KT 27/13 A299 RMK A01 T02670125  RH  041%=      5-min Rain = 0
KAM2 200953Z 20018G26KT 27/13 A299 RMK A01 T02670125  RH  041%=      5-min Rain = 0
KAM2 200954Z 20018KT 27/13 A299 RMK A01 T02670125  RH  041%=      5-min Rain = 0
KAM2 200955Z 20019G26KT 27/13 A299 RMK A01 T02670126  RH  041%=      5-min Rain = 0
KAM2 200956Z 20018G24KT 27/13 A299 RMK A01 T02670125  RH  041%=      5-min Rain = 0
KAM2 200957Z 19013KT 27/13 A299 RMK A01 T02670126  RH  041%=      5-min Rain = 0
KAM2 200958Z 20014KT 27/13 A299 RMK A01 T02660126  RH  042%=      5-min Rain = 0
KAM2 200959Z 19017KT 27/13 A299 RMK A01 T02660126  RH  042%=      5-min Rain = 0
KAM2 201000Z 20015G21KT 27/13 A299 RMK A01 T02650126  RH  042%=      5-min Rain = 0
KAM2 201001Z 20017G25KT 27/13 A299 RMK A01 T02650126  RH  042%=      5-min Rain = 0
KAM2 201002Z 19018G23KT 27/13 A299 RMK A01 T02650126  RH  042%=      5-min Rain = 0
KAM2 201003Z 20021KT 27/13 A299 RMK A01 T02650125  RH  042%=      5-min Rain = 0
KAM2 201004Z 20018G24KT 27/13 A299 RMK A01 T02660125  RH  042%=      5-min Rain = 0
KAM2 201005Z 20016KT 27/13 A299 RMK A01 T02660126  RH  042%=      5-min Rain = 0
KAM2 201006Z 20015KT 27/13 A299 RMK A01 T02650126  RH  042%=      5-min Rain = 0
KAM2 201007Z 20017KT 26/13 A299 RMK A01 T02640126  RH  042%=      5-min Rain = 0
KAM2 201008Z 20018G24KT 26/13 A299 RMK A01 T02640126  RH  042%=      5-min Rain = 0
KAM2 201009Z 20018KT 26/13 A299 RMK A01 T02640126  RH  042%=      5-min Rain = 0
KAM2 201010Z 19020G26KT 26/13 A299 RMK A01 T02640126  RH  042%=      5-min Rain = 0
KAM2 201011Z 20019KT 27/13 A299 RMK A01 T02650126  RH  042%=      5-min Rain = 0
KAM2 201012Z 19017KT 27/13 A299 RMK A01 T02650126  RH  042%=      5-min Rain = 0
KAM2 201013Z 19017G22KT 27/13 A299 RMK A01 T02650126  RH  042%=      5-min Rain = 0
KAM2 201014Z 19016KT 27/13 A299 RMK A01 T02650126  RH  042%=      5-min Rain = 0
KAM2 201015Z 19017G22KT 27/13 A299 RMK A01 T02650126  RH  042%=      5-min Rain = 0
KAM2 201016Z 20019KT 27/13 A299 RMK A01 T02650126  RH  042%=      5-min Rain = 0
KAM2 201017Z 20019KT 27/13 A299 RMK A01 T02650126  RH  042%=      5-min Rain = 0
KAM2 201018Z 20019G24KT 26/13 A299 RMK A01 T02640126  RH  042%=      5-min Rain = 0
KAM2 201019Z 20019KT 27/13 A299 RMK A01 T02650126  RH  042%=      5-min Rain = 0
KAM2 201020Z 20018G23KT 27/13 A299 RMK A01 T02650126  RH  042%=      5-min Rain = 0
KAM2 201021Z 19017G22KT 27/13 A299 RMK A01 T02650127  RH  042%=      5-min Rain = 0
KAM2 201022Z 20017KT 27/13 A299 RMK A01 T02650127  RH  042%=      5-min Rain = 0
KAM2 201023Z 20017KT 27/13 A299 RMK A01 T02650127  RH  042%=      5-min Rain = 0
KAM2 201024Z 19020G27KT 26/13 A299 RMK A01 T02640127  RH  042%=      5-min Rain = 0
KAM2 201025Z 19020KT 26/13 A299 RMK A01 T02640126  RH  042%=      5-min Rain = 0
KAM2 201026Z 19017G22KT 26/13 A299 RMK A01 T02640126  RH  042%=      5-min Rain = 0
KAM2 201027Z 19016KT 26/13 A299 RMK A01 T02640127  RH  042%=      5-min Rain = 0
KAM2 201028Z 19014KT 26/13 A299 RMK A01 T02640127  RH  043%=      5-min Rain = 0
KAM2 201029Z 20020KT 26/13 A299 RMK A01 T02630127  RH  043%=      5-min Rain = 0
KAM2 201030Z 20019G26KT 26/13 A299 RMK A01 T02630127  RH  043%=      5-min Rain = 0
KAM2 201031Z 20015G21KT 26/13 A299 RMK A01 T02630127  RH  043%=      5-min Rain = 0
KAM2 201032Z 20019G24KT 26/13 A299 RMK A01 T02630127  RH  043%=      5-min Rain = 0
KAM2 201033Z 19017G22KT 26/13 A299 RMK A01 T02630127  RH  043%=      5-min Rain = 0
KAM2 201034Z 20018G24KT 26/13 A299 RMK A01 T02630127  RH  043%=      5-min Rain = 0
KAM2 201035Z 20017KT 26/13 A299 RMK A01 T02630127  RH  043%=      5-min Rain = 0
KAM2 201036Z 20018G24KT 26/13 A299 RMK A01 T02630127  RH  043%=      5-min Rain = 0
KAM2 201037Z 20017KT 26/13 A299 RMK A01 T02630127  RH  043%=      5-min Rain = 0
KAM2 201038Z 20016KT 26/13 A299 RMK A01 T02620127  RH  043%=      5-min Rain = 0
KAM2 201039Z 20019G24KT 26/13 A299 RMK A01 T02620127  RH  043%=      5-min Rain = 0
KAM2 201040Z 20016KT 26/13 A2991 RMK A01 T02620127  RH  043%=      5-min Rain = 0
KAM2 201041Z 20018KT 26/13 A2991 RMK A01 T02620127  RH  043%=      5-min Rain = 0
KAM2 201042Z 20018G23KT 26/13 A2991 RMK A01 T02620127  RH  043%=      5-min Rain = 0
KAM2 201043Z 20017KT 26/13 A2991 RMK A01 T02620127  RH  043%=      5-min Rain = 0
KAM2 201044Z 20015KT 26/13 A2991 RMK A01 T02620127  RH  043%=      5-min Rain = 0
KAM2 201045Z 20017G23KT 26/13 A2991 RMK A01 T02610127  RH  043%=      5-min Rain = 0
KAM2 201046Z 20017KT 26/13 A2991 RMK A01 T02610127  RH  043%=      5-min Rain = 0
KAM2 201047Z 20018KT 26/13 A2991 RMK A01 T02610127  RH  043%=      5-min Rain = 0
KAM2 201048Z 19017KT 26/13 A2991 RMK A01 T02610127  RH  043%=      5-min Rain = 0
KAM2 201049Z 20018G23KT 26/13 A2991 RMK A01 T02610127  RH  043%=      5-min Rain = 0
KAM2 201050Z 20018G23KT 26/13 A2991 RMK A01 T02610127  RH  044%=      5-min Rain = 0
KAM2 201051Z 20018KT 26/13 A2991 RMK A01 T02600127  RH  043%=      5-min Rain = 0
KAM2 201052Z 20018G23KT 26/13 A2991 RMK A01 T02610127  RH  043%=      5-min Rain = 0
KAM2 201053Z 20015KT 26/13 A2991 RMK A01 T02610127  RH  043%=      5-min Rain = 0
KAM2 201054Z 20015G21KT 26/13 A2991 RMK A01 T02600127  RH  044%=      5-min Rain = 0
KAM2 201055Z 20017KT 26/13 A2991 RMK A01 T02600127  RH  044%=      5-min Rain = 0
KAM2 201056Z 19015G22KT 26/13 A2991 RMK A01 T02600127  RH  044%=      5-min Rain = 0
KAM2 201057Z 20018KT 26/13 A2991 RMK A01 T02590127  RH  044%=      5-min Rain = 0
KAM2 201058Z 20017KT 26/13 A2991 RMK A01 T02590127  RH  044%=      5-min Rain = 0
KAM2 201059Z 20014G21KT 26/13 A2991 RMK A01 T02590128  RH  044%=      5-min Rain = 0
KAM2 201100Z 20015KT 26/13 A2991 RMK A01 T02580127  RH  044%=      5-min Rain = 0
KAM2 201101Z 19017G24KT 26/13 A2991 RMK A01 T02590128  RH  044%=      5-min Rain = 0
KAM2 201102Z 20019G24KT 26/13 A2991 RMK A01 T02580127  RH  044%=      5-min Rain = 0
KAM2 201103Z 20015KT 26/13 A2991 RMK A01 T02590127  RH  044%=      5-min Rain = 0
KAM2 201104Z 20017KT 26/13 A2991 RMK A01 T02590127  RH  044%=      5-min Rain = 0
KAM2 201105Z 20015KT 26/13 A2991 RMK A01 T02590128  RH  044%=      5-min Rain = 0
KAM2 201106Z 20013KT 26/13 A2991 RMK A01 T02590128  RH  044%=      5-min Rain = 0
KAM2 201107Z 19016KT 26/13 A2991 RMK A01 T02580127  RH  044%=      5-min Rain = 0
KAM2 201108Z 20017KT 26/13 A2991 RMK A01 T02580128  RH  044%=      5-min Rain = 0
KAM2 201109Z 20018KT 26/13 A2991 RMK A01 T02580127  RH  044%=      5-min Rain = 0
KAM2 201110Z 20014KT 26/13 A2991 RMK A01 T02580127  RH  044%=      5-min Rain = 0
KAM2 201111Z 20013G18KT 26/13 A2991 RMK A01 T02580128  RH  044%=      5-min Rain = 0
KAM2 201112Z 20016G21KT 26/13 A2991 RMK A01 T02570128  RH  045%=      5-min Rain = 0
KAM2 201113Z 20015KT 26/13 A2991 RMK A01 T02570127  RH  045%=      5-min Rain = 0
KAM2 201114Z 20016G24KT 26/13 A2991 RMK A01 T02570127  RH  045%=      5-min Rain = 0
KAM2 201115Z 20019G25KT 26/13 A2991 RMK A01 T02570127  RH  044%=      5-min Rain = 0
KAM2 201116Z 19018G25KT 26/13 A2991 RMK A01 T02580127  RH  044%=      5-min Rain = 0
KAM2 201117Z 19017KT 26/13 A2991 RMK A01 T02580127  RH  044%=      5-min Rain = 0
KAM2 201118Z 20018KT 26/13 A2991 RMK A01 T02580127  RH  044%=      5-min Rain = 0
KAM2 201119Z 19016KT 26/13 A2991 RMK A01 T02590128  RH  044%=      5-min Rain = 0
KAM2 201120Z 19014KT 26/13 A2991 RMK A01 T02580127  RH  044%=      5-min Rain = 0
KAM2 201121Z 20015G20KT 26/13 A2991 RMK A01 T02580128  RH  044%=      5-min Rain = 0
KAM2 201122Z 20013G19KT 26/13 A2991 RMK A01 T02570128  RH  044%=      5-min Rain = 0
KAM2 201123Z 20014KT 26/13 A2991 RMK A01 T02570128  RH  045%=      5-min Rain = 0
KAM2 201124Z 20016G21KT 26/13 A2991 RMK A01 T02560128  RH  045%=      5-min Rain = 0
KAM2 201125Z 19015G20KT 26/13 A2991 RMK A01 T02560127  RH  045%=      5-min Rain = 0
KAM2 201126Z 19013KT 26/13 A2991 RMK A01 T02560127  RH  045%=      5-min Rain = 0
KAM2 201127Z 19014KT 26/13 A2991 RMK A01 T02560128  RH  045%=      5-min Rain = 0
KAM2 201128Z 19013KT 26/13 A2991 RMK A01 T02560128  RH  045%=      5-min Rain = 0
KAM2 201129Z 19014KT 26/13 A2991 RMK A01 T02550128  RH  045%=      5-min Rain = 0
KAM2 201130Z 19013KT 26/13 A2991 RMK A01 T02550128  RH  045%=      5-min Rain = 0
KAM2 201131Z 19014KT 26/13 A2991 RMK A01 T02550128  RH  045%=      5-min Rain = 0
KAM2 201132Z 20014G19KT 26/13 A2991 RMK A01 T02550128  RH  045%=      5-min Rain = 0
KAM2 201133Z 20015KT 26/13 A2991 RMK A01 T02550127  RH  045%=      5-min Rain = 0
KAM2 201134Z 19017KT 26/13 A2991 RMK A01 T02550127  RH  045%=      5-min Rain = 0
KAM2 201135Z 19017KT 26/13 A2991 RMK A01 T02550127  RH  045%=      5-min Rain = 0
KAM2 201136Z 19018KT 26/13 A2991 RMK A01 T02560127  RH  045%=      5-min Rain = 0
KAM2 201137Z 20015G20KT 26/13 A2991 RMK A01 T02560127  RH  045%=      5-min Rain = 0
KAM2 201138Z 20016KT 26/13 A2991 RMK A01 T02560128  RH  045%=      5-min Rain = 0
KAM2 201139Z 19014G19KT 26/13 A2991 RMK A01 T02560128  RH  045%=      5-min Rain = 0
KAM2 201140Z 19014KT 26/13 A2991 RMK A01 T02550128  RH  045%=      5-min Rain = 0
KAM2 201141Z 20013G18KT 26/13 A2991 RMK A01 T02550128  RH  045%=      5-min Rain = 0
KAM2 201142Z 20014G19KT 26/13 A2991 RMK A01 T02550128  RH  045%=      5-min Rain = 0
KAM2 201143Z 19017KT 26/13 A2991 RMK A01 T02550128  RH  045%=      5-min Rain = 0
KAM2 201144Z 20013G18KT 26/13 A2991 RMK A01 T02550128  RH  045%=      5-min Rain = 0
KAM2 201145Z 20014KT 26/13 A2991 RMK A01 T02550128  RH  045%=      5-min Rain = 0
KAM2 201146Z 19017G22KT 25/13 A2991 RMK A01 T02540128  RH  045%=      5-min Rain = 0
KAM2 201147Z 19012KT 25/13 A2991 RMK A01 T02540128  RH  045%=      5-min Rain = 0
KAM2 201148Z 19014G20KT 25/13 A2991 RMK A01 T02540128  RH  046%=      5-min Rain = 0
KAM2 201149Z 19015KT 25/13 A2991 RMK A01 T02530128  RH  046%=      5-min Rain = 0
KAM2 201150Z 20013KT 25/13 A2991 RMK A01 T02530128  RH  046%=      5-min Rain = 0
KAM2 201151Z 19016G21KT 25/13 A2991 RMK A01 T02530129  RH  046%=      5-min Rain = 0
KAM2 201152Z 20013KT 25/13 A2991 RMK A01 T02530128  RH  046%=      5-min Rain = 0
KAM2 201153Z 19015G20KT 25/13 A2991 RMK A01 T02530128  RH  046%=      5-min Rain = 0
KAM2 201154Z 19019KT 25/13 A299 RMK A01 T02520128  RH  046%=      5-min Rain = 0
KAM2 201155Z 20017G23KT 25/13 A2991 RMK A01 T02530128  RH  046%=      5-min Rain = 0
KAM2 201156Z 19017G25KT 25/13 A299 RMK A01 T02540128  RH  046%=      5-min Rain = 0
KAM2 201157Z 20017G24KT 25/13 A299 RMK A01 T02540128  RH  046%=      5-min Rain = 0
KAM2 201158Z 20016G21KT 25/13 A2991 RMK A01 T02540128  RH  046%=      5-min Rain = 0
KAM2 201159Z 19014G20KT 25/13 A299 RMK A01 T02540129  RH  046%=      5-min Rain = 0
KAM2 201200Z 20015G22KT 25/13 A2991 RMK A01 T02530129  RH  046%=      5-min Rain = 0
KAM2 201201Z 19015G21KT 25/13 A2991 RMK A01 T02530129  RH  046%=      5-min Rain = 0
KAM2 201202Z 20018KT 25/13 A2991 RMK A01 T02530129  RH  046%=      5-min Rain = 0
KAM2 201203Z 19013G20KT 25/13 A2991 RMK A01 T02530128  RH  046%=      5-min Rain = 0
KAM2 201204Z 19016KT 25/13 A2991 RMK A01 T02530129  RH  046%=      5-min Rain = 0
KAM2 201205Z 19016KT 25/13 A2991 RMK A01 T02530129  RH  046%=      5-min Rain = 0
KAM2 201206Z 20019G24KT 25/13 A2991 RMK A01 T02530129  RH  046%=      5-min Rain = 0
KAM2 201207Z 20016G22KT 25/13 A2991 RMK A01 T02540129  RH  046%=      5-min Rain = 0
KAM2 201208Z 19016KT 25/13 A2991 RMK A01 T02540129  RH  046%=      5-min Rain = 0
KAM2 201209Z 20015G21KT 25/13 A2991 RMK A01 T02540129  RH  046%=      5-min Rain = 0
KAM2 201210Z 20017G22KT 25/13 A2991 RMK A01 T02540130  RH  046%=      5-min Rain = 0
KAM2 201211Z 19017KT 25/13 A2991 RMK A01 T02540130  RH  046%=      5-min Rain = 0
KAM2 201212Z 19018KT 25/13 A2991 RMK A01 T02540130  RH  046%=      5-min Rain = 0
KAM2 201213Z 20018KT 25/13 A2991 RMK A01 T02540129  RH  046%=      5-min Rain = 0
KAM2 201214Z 19016KT 25/13 A2991 RMK A01 T02540130  RH  046%=      5-min Rain = 0
KAM2 201215Z 20018G23KT 25/13 A2991 RMK A01 T02540130  RH  046%=      5-min Rain = 0
KAM2 201216Z 20016G22KT 25/13 A2991 RMK A01 T02540129  RH  046%=      5-min Rain = 0
KAM2 201217Z 20016KT 25/13 A2991 RMK A01 T02540130  RH  046%=      5-min Rain = 0
KAM2 201218Z 20015G20KT 25/13 A2991 RMK A01 T02540130  RH  046%=      5-min Rain = 0
KAM2 201219Z 20016KT 25/13 A2991 RMK A01 T02540130  RH  046%=      5-min Rain = 0
KAM2 201220Z 19014KT 25/13 A2991 RMK A01 T02540130  RH  046%=      5-min Rain = 0
KAM2 201221Z 19015G20KT 25/13 A2991 RMK A01 T02540131  RH  046%=      5-min Rain = 0
KAM2 201222Z 19018KT 25/13 A2991 RMK A01 T02540131  RH  046%=      5-min Rain = 0
KAM2 201223Z 19019G24KT 26/13 A2991 RMK A01 T02550130  RH  046%=      5-min Rain = 0
KAM2 201224Z 20016G21KT 26/13 A2991 RMK A01 T02550130  RH  046%=      5-min Rain = 0
KAM2 201225Z 19014G20KT 26/13 A2991 RMK A01 T02560131  RH  046%=      5-min Rain = 0
KAM2 201226Z 19017G22KT 26/13 A2991 RMK A01 T02560131  RH  046%=      5-min Rain = 0
KAM2 201227Z 19017KT 26/13 A2991 RMK A01 T02560131  RH  046%=      5-min Rain = 0
KAM2 201228Z 20016G21KT 26/13 A2991 RMK A01 T02560130  RH  046%=      5-min Rain = 0
KAM2 201229Z 20016KT 26/13 A2991 RMK A01 T02560131  RH  046%=      5-min Rain = 0
KAM2 201230Z 19017KT 26/13 A2991 RMK A01 T02560131  RH  046%=      5-min Rain = 0
KAM2 201231Z 19016G21KT 26/13 A2991 RMK A01 T02560131  RH  046%=      5-min Rain = 0
KAM2 201232Z 19017G23KT 26/13 A2991 RMK A01 T02560131  RH  046%=      5-min Rain = 0
KAM2 201233Z 20019KT 26/13 A2991 RMK A01 T02560131  RH  046%=      5-min Rain = 0
KAM2 201234Z 19017KT 26/13 A2991 RMK A01 T02570131  RH  046%=      5-min Rain = 0
KAM2 201235Z 19017KT 26/13 A2991 RMK A01 T02570131  RH  046%=      5-min Rain = 0
KAM2 201236Z 19017KT 26/13 A2991 RMK A01 T02560131  RH  046%=      5-min Rain = 0
KAM2 201237Z 19016G21KT 26/13 A2991 RMK A01 T02570132  RH  046%=      5-min Rain = 0
KAM2 201238Z 19018KT 26/13 A2991 RMK A01 T02570132  RH  046%=      5-min Rain = 0
KAM2 201239Z 19017G22KT 26/13 A2991 RMK A01 T02570132  RH  046%=      5-min Rain = 0
KAM2 201240Z 19018KT 26/13 A2991 RMK A01 T02570131  RH  046%=      5-min Rain = 0
KAM2 201241Z 19017KT 26/13 A2991 RMK A01 T02570132  RH  046%=      5-min Rain = 0
KAM2 201242Z 20018G23KT 26/13 A2991 RMK A01 T02570132  RH  046%=      5-min Rain = 0
KAM2 201243Z 19015G21KT 26/13 A2991 RMK A01 T02580133  RH  046%=      5-min Rain = 0
KAM2 201244Z 20020G25KT 26/13 A2991 RMK A01 T02580133  RH  046%=      5-min Rain = 0
KAM2 201245Z 20016G24KT 26/13 A2991 RMK A01 T02580132  RH  046%=      5-min Rain = 0
KAM2 201246Z 19016G23KT 26/13 A2991 RMK A01 T02580133  RH  046%=      5-min Rain = 0
KAM2 201247Z 19018KT 26/13 A2991 RMK A01 T02580133  RH  046%=      5-min Rain = 0
KAM2 201248Z 20016G23KT 26/13 A2991 RMK A01 T02590133  RH  046%=      5-min Rain = 0
KAM2 201249Z 20017KT 26/13 A2991 RMK A01 T02590133  RH  046%=      5-min Rain = 0
KAM2 201250Z 19021KT 26/13 A2991 RMK A01 T02580133  RH  046%=      5-min Rain = 0
KAM2 201251Z 20020G27KT 26/13 A2991 RMK A01 T02590133  RH  046%=      5-min Rain = 0
KAM2 201252Z 20022G28KT 26/13 A2991 RMK A01 T02590132  RH  046%=      5-min Rain = 0
KAM2 201253Z 19020KT 26/13 A2991 RMK A01 T02590132  RH  045%=      5-min Rain = 0
KAM2 201254Z 19022G27KT 26/13 A2991 RMK A01 T02600133  RH  045%=      5-min Rain = 0
KAM2 201255Z 19022KT 26/13 A2991 RMK A01 T02600133  RH  045%=      5-min Rain = 0
KAM2 201256Z 20022KT 26/13 A2991 RMK A01 T02600133  RH  045%=      5-min Rain = 0
KAM2 201257Z 19020G25KT 26/13 A2991 RMK A01 T02600133  RH  045%=      5-min Rain = 0
KAM2 201258Z 20022G27KT 26/13 A2991 RMK A01 T02600133  RH  045%=      5-min Rain = 0
KAM2 201259Z 19020G25KT 26/13 A2991 RMK A01 T02600134  RH  046%=      5-min Rain = 0
KAM2 201300Z 20017G25KT 26/13 A2991 RMK A01 T02600134  RH  046%=      5-min Rain = 0
KAM2 201301Z 19021G28KT 26/13 A2991 RMK A01 T02600134  RH  046%=      5-min Rain = 0
KAM2 201302Z 19021KT 26/13 A2991 RMK A01 T02600134  RH  046%=      5-min Rain = 0
KAM2 201303Z 19020KT 26/13 A2991 RMK A01 T02600134  RH  046%=      5-min Rain = 0
KAM2 201304Z 20020G27KT 26/13 A2991 RMK A01 T02600134  RH  046%=      5-min Rain = 0
KAM2 201305Z 20020G26KT 26/14 A2991 RMK A01 T02610135  RH  046%=      5-min Rain = 0
KAM2 201306Z 19020G27KT 26/14 A2991 RMK A01 T02610135  RH  046%=      5-min Rain = 0
KAM2 201307Z 20019G25KT 26/14 A2991 RMK A01 T02610135  RH  046%=      5-min Rain = 0
KAM2 201308Z 20014G20KT 26/14 A2991 RMK A01 T02610136  RH  046%=      5-min Rain = 0
KAM2 201309Z 20022G28KT 26/14 A2991 RMK A01 T02610136  RH  046%=      5-min Rain = 0
KAM2 201310Z 19020G25KT 26/14 A2991 RMK A01 T02620135  RH  046%=      5-min Rain = 0
KAM2 201311Z 20021G26KT 26/14 A2991 RMK A01 T02620135  RH  046%=      5-min Rain = 0
KAM2 201312Z 20018G24KT 26/14 A2991 RMK A01 T02620136  RH  046%=      5-min Rain = 0
KAM2 201313Z 20019G29KT 26/14 A2991 RMK A01 T02620136  RH  046%=      5-min Rain = 0
KAM2 201314Z 20021G28KT 26/14 A2991 RMK A01 T02620135  RH  045%=      5-min Rain = 0
KAM2 201315Z 20017G22KT 26/14 A2991 RMK A01 T02620135  RH  046%=      5-min Rain = 0
KAM2 201316Z 20019G24KT 26/14 A2991 RMK A01 T02620136  RH  046%=      5-min Rain = 0
KAM2 201317Z 20019KT 26/14 A2991 RMK A01 T02630136  RH  046%=      5-min Rain = 0
KAM2 201318Z 20019G25KT 26/14 A2991 RMK A01 T02630137  RH  046%=      5-min Rain = 0
KAM2 201319Z 19020KT 26/14 A2991 RMK A01 T02630136  RH  046%=      5-min Rain = 0
KAM2 201320Z 19023KT 26/14 A2991 RMK A01 T02640137  RH  046%=      5-min Rain = 0
KAM2 201321Z 20024KT 26/14 A2991 RMK A01 T02640136  RH  045%=      5-min Rain = 0
KAM2 201322Z 19019KT 26/14 A2991 RMK A01 T02640136  RH  045%=      5-min Rain = 0
KAM2 201323Z 19020G29KT 26/14 A2991 RMK A01 T02640137  RH  045%=      5-min Rain = 0
KAM2 201324Z 20021G27KT 26/14 A2991 RMK A01 T02640138  RH  046%=      5-min Rain = 0
KAM2 201325Z 19019G24KT 26/14 A2991 RMK A01 T02640137  RH  045%=      5-min Rain = 0
KAM2 201326Z 20021G26KT 27/14 A2991 RMK A01 T02650137  RH  045%=      5-min Rain = 0
KAM2 201327Z 20024G29KT 27/14 A2991 RMK A01 T02650137  RH  045%=      5-min Rain = 0
KAM2 201328Z 20018G24KT 27/14 A2991 RMK A01 T02650137  RH  045%=      5-min Rain = 0
KAM2 201329Z 19024G29KT 27/14 A2991 RMK A01 T02650138  RH  045%=      5-min Rain = 0
KAM2 201330Z 19021G26KT 27/14 A2991 RMK A01 T02660137  RH  045%=      5-min Rain = 0
KAM2 201331Z 20024KT 27/14 A2991 RMK A01 T02660137  RH  045%=      5-min Rain = 0
KAM2 201332Z 19019G26KT 27/14 A2991 RMK A01 T02660138  RH  045%=      5-min Rain = 0
KAM2 201333Z 19020G26KT 27/14 A2991 RMK A01 T02660139  RH  046%=      5-min Rain = 0
KAM2 201334Z 19019G24KT 27/14 A2991 RMK A01 T02660139  RH  045%=      5-min Rain = 0
KAM2 201335Z 19023G31KT 27/14 A2991 RMK A01 T02670139  RH  045%=      5-min Rain = 0
KAM2 201336Z 20021G29KT 27/14 A2991 RMK A01 T02670138  RH  045%=      5-min Rain = 0
KAM2 201337Z 19019G25KT 27/14 A2991 RMK A01 T02670139  RH  045%=      5-min Rain = 0
KAM2 201338Z 19023KT 27/14 A2991 RMK A01 T02670139  RH  045%=      5-min Rain = 0
KAM2 201339Z 20021G26KT 27/14 A2991 RMK A01 T02670139  RH  045%=      5-min Rain = 0
KAM2 201340Z 20022G28KT 27/14 A2991 RMK A01 T02670139  RH  045%=      5-min Rain = 0
KAM2 201341Z 19023G31KT 27/14 A2991 RMK A01 T02680139  RH  045%=      5-min Rain = 0
KAM2 201342Z 19019G26KT 27/14 A2991 RMK A01 T02680139  RH  045%=      5-min Rain = 0
KAM2 201343Z 20024G29KT 27/14 A2991 RMK A01 T02680140  RH  045%=      5-min Rain = 0
KAM2 201344Z 20020G26KT 27/14 A2991 RMK A01 T02680139  RH  045%=      5-min Rain = 0
KAM2 201345Z 20018G26KT 27/14 A2991 RMK A01 T02690141  RH  045%=      5-min Rain = 0
KAM2 201346Z 20021G27KT 27/14 A2991 RMK A01 T02690141  RH  045%=      5-min Rain = 0
KAM2 201347Z 19020G26KT 27/14 A2991 RMK A01 T02690140  RH  045%=      5-min Rain = 0
KAM2 201348Z 20022G27KT 27/14 A2991 RMK A01 T02700141  RH  045%=      5-min Rain = 0
KAM2 201349Z 19020G25KT 27/14 A2991 RMK A01 T02700141  RH  045%=      5-min Rain = 0
KAM2 201350Z 19022KT 27/14 A2991 RMK A01 T02700141  RH  045%=      5-min Rain = 0
KAM2 201351Z 20022KT 27/14 A2991 RMK A01 T02700140  RH  045%=      5-min Rain = 0
KAM2 201352Z 19016G22KT 27/14 A2991 RMK A01 T02710142  RH  045%=      5-min Rain = 0
KAM2 201353Z 19019G25KT 27/14 A2991 RMK A01 T02710142  RH  045%=      5-min Rain = 0
KAM2 201354Z 19019G25KT 27/14 A2991 RMK A01 T02710141  RH  045%=      5-min Rain = 0
KAM2 201355Z 19019KT 27/14 A2991 RMK A01 T02720142  RH  045%=      5-min Rain = 0
KAM2 201356Z 19022G29KT 27/14 A2991 RMK A01 T02720141  RH  045%=      5-min Rain = 0
KAM2 201357Z 19019KT 27/14 A2991 RMK A01 T02720142  RH  045%=      5-min Rain = 0
KAM2 201358Z 19019G24KT 27/14 A2991 RMK A01 T02720142  RH  045%=      5-min Rain = 0
KAM2 201359Z 19021KT 27/14 A2991 RMK A01 T02730142  RH  045%=      5-min Rain = 0
KAM2 201400Z 20022G28KT 27/14 A2991 RMK A01 T02730142  RH  044%=      5-min Rain = 0
KAM2 201401Z 19021KT 27/14 A2991 RMK A01 T02740142  RH  044%=      5-min Rain = 0
KAM2 201402Z 19019G26KT 27/14 A2991 RMK A01 T02730142  RH  045%=      5-min Rain = 0
KAM2 201403Z 19024KT 27/14 A2991 RMK A01 T02730142  RH  045%=      5-min Rain = 0
KAM2 201404Z 19021G26KT 27/14 A2991 RMK A01 T02730141  RH  044%=      5-min Rain = 0
KAM2 201405Z 19019G25KT 27/14 A2991 RMK A01 T02740142  RH  045%=      5-min Rain = 0
KAM2 201406Z 19016G21KT 27/14 A2991 RMK A01 T02740143  RH  045%=      5-min Rain = 0
KAM2 201407Z 19022G27KT 28/14 A2991 RMK A01 T02750143  RH  044%=      5-min Rain = 0
KAM2 201408Z 19018KT 28/14 A2991 RMK A01 T02760143  RH  044%=      5-min Rain = 0
KAM2 201409Z 20019G26KT 28/14 A2991 RMK A01 T02760143  RH  044%=      5-min Rain = 0
KAM2 201410Z 18017G22KT 28/14 A2991 RMK A01 T02760144  RH  044%=      5-min Rain = 0
KAM2 201411Z 19018KT 28/14 A2991 RMK A01 T02770144  RH  044%=      5-min Rain = 0
KAM2 201412Z 19017KT 28/14 A2991 RMK A01 T02770144  RH  044%=      5-min Rain = 0
KAM2 201413Z 20023KT 28/14 A2991 RMK A01 T02780143  RH  044%=      5-min Rain = 0
KAM2 201414Z 20021G26KT 28/14 A2991 RMK A01 T02780142  RH  043%=      5-min Rain = 0
KAM2 201415Z 19016KT 28/14 A2991 RMK A01 T02780144  RH  044%=      5-min Rain = 0
KAM2 201416Z 19024KT 28/14 A2991 RMK A01 T02780144  RH  044%=      5-min Rain = 0
KAM2 201417Z 19022G27KT 28/14 A2991 RMK A01 T02780143  RH  044%=      5-min Rain = 0
KAM2 201418Z 20020G27KT 28/14 A2991 RMK A01 T02780143  RH  044%=      5-min Rain = 0
KAM2 201419Z 20023G28KT 28/14 A2991 RMK A01 T02780143  RH  043%=      5-min Rain = 0
KAM2 201420Z 19021G27KT 28/14 A2991 RMK A01 T02790143  RH  043%=      5-min Rain = 0
KAM2 201421Z 18017G23KT 28/15 A2991 RMK A01 T02790145  RH  044%=      5-min Rain = 0
KAM2 201422Z 19022KT 28/15 A2991 RMK A01 T02810146  RH  044%=      5-min Rain = 0
KAM2 201423Z 19019KT 28/14 A2991 RMK A01 T02810144  RH  043%=      5-min Rain = 0
KAM2 201424Z 19021KT 28/15 A2991 RMK A01 T02810145  RH  043%=      5-min Rain = 0
KAM2 201425Z 19020KT 28/15 A2991 RMK A01 T02820145  RH  043%=      5-min Rain = 0
KAM2 201426Z 19021G26KT 28/15 A2991 RMK A01 T02830146  RH  043%=      5-min Rain = 0
KAM2 201427Z 19021KT 28/14 A2991 RMK A01 T02830144  RH  043%=      5-min Rain = 0
KAM2 201428Z 19019G25KT 28/15 A2991 RMK A01 T02830145  RH  043%=      5-min Rain = 0
KAM2 201429Z 20021G26KT 28/15 A2991 RMK A01 T02830145  RH  043%=      5-min Rain = 0
KAM2 201430Z 20025G30KT 28/14 A2991 RMK A01 T02830144  RH  042%=      5-min Rain = 0
KAM2 201431Z 19024KT 28/14 A2991 RMK A01 T02840144  RH  042%=      5-min Rain = 0
KAM2 201432Z 19024G31KT 28/14 A2991 RMK A01 T02830143  RH  042%=      5-min Rain = 0
KAM2 201433Z 19023G29KT 28/14 A2991 RMK A01 T02830144  RH  042%=      5-min Rain = 0
KAM2 201434Z 19018G24KT 28/15 A2991 RMK A01 T02830145  RH  043%=      5-min Rain = 0
KAM2 201435Z 19020G25KT 28/15 A2991 RMK A01 T02840145  RH  043%=      5-min Rain = 0
KAM2 201436Z 19021G27KT 29/15 A2991 RMK A01 T02850146  RH  043%=      5-min Rain = 0
KAM2 201437Z 20020G27KT 29/15 A2991 RMK A01 T02850145  RH  042%=      5-min Rain = 0
KAM2 201438Z 19021KT 29/15 A2991 RMK A01 T02860146  RH  042%=      5-min Rain = 0
KAM2 201439Z 19019KT 29/15 A2991 RMK A01 T02860146  RH  042%=      5-min Rain = 0
KAM2 201440Z 19020G26KT 29/15 A2991 RMK A01 T02870146  RH  042%=      5-min Rain = 0
KAM2 201441Z 20017G23KT 29/15 A2991 RMK A01 T02870147  RH  042%=      5-min Rain = 0
KAM2 201442Z 19017G22KT 29/15 A2991 RMK A01 T02890148  RH  042%=      5-min Rain = 0
KAM2 201443Z 20021KT 29/15 A2991 RMK A01 T02900147  RH  042%=      5-min Rain = 0
KAM2 201444Z 20022KT 29/15 A2991 RMK A01 T02900147  RH  042%=      5-min Rain = 0
KAM2 201445Z 19019KT 29/15 A2991 RMK A01 T02890146  RH  042%=      5-min Rain = 0
KAM2 201446Z 19020G26KT 29/15 A2991 RMK A01 T02890147  RH  042%=      5-min Rain = 0
KAM2 201447Z 19019G24KT 29/15 A2991 RMK A01 T02890146  RH  042%=      5-min Rain = 0
KAM2 201448Z 19018KT 29/15 A2991 RMK A01 T02900147  RH  042%=      5-min Rain = 0
KAM2 201449Z 19019KT 29/15 A2991 RMK A01 T02900146  RH  042%=      5-min Rain = 0
KAM2 201450Z 19016G21KT 29/15 A2991 RMK A01 T02910147  RH  042%=      5-min Rain = 0
KAM2 201451Z 19016G22KT 29/15 A2991 RMK A01 T02910150  RH  042%=      5-min Rain = 0
KAM2 201452Z 19018G23KT 29/15 A2991 RMK A01 T02930148  RH  041%=      5-min Rain = 0
KAM2 201453Z 19019KT 29/15 A2991 RMK A01 T02930148  RH  041%=      5-min Rain = 0
KAM2 201454Z 19016G21KT 29/15 A2991 RMK A01 T02920149  RH  042%=      5-min Rain = 0
KAM2 201455Z 19020KT 29/15 A2991 RMK A01 T02930149  RH  041%=      5-min Rain = 0
KAM2 201456Z 20020G26KT 29/15 A2991 RMK A01 T02940148  RH  041%=      5-min Rain = 0
KAM2 201457Z 20021G28KT 29/15 A2991 RMK A01 T02940147  RH  041%=      5-min Rain = 0
KAM2 201458Z 20016G22KT 29/15 A2991 RMK A01 T02930148  RH  041%=      5-min Rain = 0
KAM2 201459Z 20018G23KT 29/15 A2991 RMK A01 T02940148  RH  041%=      5-min Rain = 0
KAM2 201500Z 20015KT 30/15 A2991 RMK A01 T02950149  RH  041%=      5-min Rain = 0
KAM2 201501Z 19015G20KT 30/15 A2991 RMK A01 T02960150  RH  041%=      5-min Rain = 0
KAM2 201502Z 20013G18KT 30/15 A2991 RMK A01 T02970151  RH  041%=      5-min Rain = 0
KAM2 201503Z 19014G19KT 30/15 A2991 RMK A01 T02980150  RH  041%=      5-min Rain = 0
KAM2 201504Z 19020KT 30/15 A2991 RMK A01 T02990149  RH  040%=      5-min Rain = 0
KAM2 201505Z 19020G25KT 30/15 A2991 RMK A01 T02990148  RH  040%=      5-min Rain = 0
KAM2 201506Z 20019KT 30/15 A2991 RMK A01 T02990148  RH  040%=      5-min Rain = 0
KAM2 201507Z 20020KT 30/15 A2991 RMK A01 T02990148  RH  040%=      5-min Rain = 0
KAM2 201508Z 20017KT 30/15 A2991 RMK A01 T02980148  RH  040%=      5-min Rain = 0
KAM2 201509Z 20019G24KT 30/15 A2991 RMK A01 T02980148  RH  040%=      5-min Rain = 0
KAM2 201510Z 20015KT 30/15 A2991 RMK A01 T02980149  RH  040%=      5-min Rain = 0
KAM2 201511Z 20016KT 30/15 A2991 RMK A01 T03000149  RH  040%=      5-min Rain = 0
KAM2 201512Z 20015KT 30/15 A2991 RMK A01 T03000151  RH  040%=      5-min Rain = 0
KAM2 201513Z 19016G21KT 30/15 A2991 RMK A01 T03020151  RH  040%=      5-min Rain = 0
KAM2 201514Z 20017G22KT 30/15 A2991 RMK A01 T03030150  RH  039%=      5-min Rain = 0
KAM2 201515Z 19014KT 30/15 A2991 RMK A01 T03030150  RH  039%=      5-min Rain = 0
KAM2 201516Z 20016G22KT 30/15 A2991 RMK A01 T03040151  RH  040%=      5-min Rain = 0
KAM2 201517Z 20018KT 31/15 A2991 RMK A01 T03050151  RH  039%=      5-min Rain = 0
KAM2 201518Z 19018G23KT 31/15 A2991 RMK A01 T03050149  RH  039%=      5-min Rain = 0
KAM2 201519Z 19017G24KT 30/15 A299 RMK A01 T03040149  RH  039%=      5-min Rain = 0
KAM2 201520Z 19019KT 30/15 A299 RMK A01 T03030148  RH  039%=      5-min Rain = 0
KAM2 201521Z 19017G22KT 30/15 A299 RMK A01 T03030149  RH  039%=      5-min Rain = 0
KAM2 201522Z 20019KT 30/15 A299 RMK A01 T03030148  RH  039%=      5-min Rain = 0
KAM2 201523Z 20019KT 30/15 A299 RMK A01 T03030148  RH  039%=      5-min Rain = 0
KAM2 201524Z 20018KT 30/15 A299 RMK A01 T03030149  RH  039%=      5-min Rain = 0
KAM2 201525Z 20018KT 30/15 A299 RMK A01 T03030149  RH  039%=      5-min Rain = 0
KAM2 201526Z 20015KT 30/15 A299 RMK A01 T03030149  RH  039%=      5-min Rain = 0
KAM2 201527Z 19017G23KT 30/15 A299 RMK A01 T03040150  RH  039%=      5-min Rain = 0
KAM2 201528Z 19022KT 31/15 A299 RMK A01 T03060147  RH  038%=      5-min Rain = 0
KAM2 201529Z 20015KT 31/15 A299 RMK A01 T03060148  RH  038%=      5-min Rain = 0
KAM2 201530Z 20017KT 31/15 A299 RMK A01 T03060149  RH  038%=      5-min Rain = 0
KAM2 201531Z 19014KT 31/15 A2991 RMK A01 T03070150  RH  039%=      5-min Rain = 0
KAM2 201532Z 20014G19KT 31/15 A2991 RMK A01 T03080152  RH  039%=      5-min Rain = 0
KAM2 201533Z 20018G23KT 31/15 A2991 RMK A01 T03090150  RH  038%=      5-min Rain = 0
KAM2 201534Z 19019G24KT 31/15 A2991 RMK A01 T03090149  RH  038%=      5-min Rain = 0
KAM2 201535Z 19020KT 31/15 A2991 RMK A01 T03090149  RH  038%=      5-min Rain = 0
KAM2 201536Z 18017KT 31/15 A2991 RMK A01 T03070150  RH  038%=      5-min Rain = 0
KAM2 201537Z 19016G21KT 31/15 A2991 RMK A01 T03080151  RH  039%=      5-min Rain = 0
KAM2 201538Z 20014G19KT 31/15 A2991 RMK A01 T03090152  RH  039%=      5-min Rain = 0
KAM2 201539Z 20018KT 31/15 A2991 RMK A01 T03110152  RH  038%=      5-min Rain = 0
KAM2 201540Z 20014KT 31/15 A2991 RMK A01 T03110150  RH  038%=      5-min Rain = 0
KAM2 201541Z 19014KT 31/15 A2991 RMK A01 T03110153  RH  039%=      5-min Rain = 0
KAM2 201542Z 19013KT 31/15 A2991 RMK A01 T03120154  RH  038%=      5-min Rain = 0
KAM2 201543Z 18014KT 31/15 A2991 RMK A01 T03130153  RH  038%=      5-min Rain = 0
KAM2 201544Z 18015KT 31/15 A2991 RMK A01 T03140153  RH  038%=      5-min Rain = 0
KAM2 201545Z 19013KT 32/15 A2991 RMK A01 T03150153  RH  038%=      5-min Rain = 0
KAM2 201546Z 19017KT 32/15 A2991 RMK A01 T03150153  RH  037%=      5-min Rain = 0
KAM2 201547Z 20014G20KT 32/15 A2991 RMK A01 T03160152  RH  037%=      5-min Rain = 0
KAM2 201548Z 20016KT 32/15 A2991 RMK A01 T03160150  RH  037%=      5-min Rain = 0
KAM2 201549Z 20015KT 32/15 A2991 RMK A01 T03150151  RH  037%=      5-min Rain = 0
KAM2 201550Z 21013G18KT 32/15 A2991 RMK A01 T03160150  RH  037%=      5-min Rain = 0
KAM2 201551Z 20015KT 32/15 A2991 RMK A01 T03160151  RH  037%=      5-min Rain = 0
KAM2 201552Z 20014KT 32/15 A2991 RMK A01 T03160150  RH  037%=      5-min Rain = 0
KAM2 201553Z 18011G17KT 32/15 A2991 RMK A01 T03160152  RH  037%=      5-min Rain = 0
KAM2 201554Z 19014KT 32/16 A2991 RMK A01 T03160155  RH  038%=      5-min Rain = 0
KAM2 201555Z 18015KT 32/15 A2991 RMK A01 T03170153  RH  037%=      5-min Rain = 0
KAM2 201556Z 18015KT 32/15 A2991 RMK A01 T03180151  RH  036%=      5-min Rain = 0
KAM2 201557Z 17014KT 32/15 A2991 RMK A01 T03190152  RH  036%=      5-min Rain = 0
KAM2 201558Z 18017KT 32/15 A2991 RMK A01 T03190150  RH  036%=      5-min Rain = 0
KAM2 201559Z 18014KT 32/15 A2991 RMK A01 T03200151  RH  036%=      5-min Rain = 0
KAM2 201600Z 20016KT 32/15 A2991 RMK A01 T03200151  RH  036%=      5-min Rain = 0
KAM2 201601Z 20015KT 32/15 A2991 RMK A01 T03200149  RH  036%=      5-min Rain = 0
KAM2 201602Z 20012G18KT 32/15 A2991 RMK A01 T03200151  RH  036%=      5-min Rain = 0
KAM2 201603Z 19010KT 32/15 A2991 RMK A01 T03210152  RH  036%=      5-min Rain = 0
KAM2 201604Z 18012KT 32/15 A2991 RMK A01 T03210154  RH  037%=      5-min Rain = 0
KAM2 201605Z 18012KT 32/15 A2991 RMK A01 T03210154  RH  036%=      5-min Rain = 0
KAM2 201606Z 18013KT 32/15 A2991 RMK A01 T03220152  RH  036%=      5-min Rain = 0
KAM2 201607Z 18014KT 32/15 A2991 RMK A01 T03230153  RH  036%=      5-min Rain = 0
KAM2 201608Z 18012KT 32/15 A2991 RMK A01 T03240154  RH  036%=      5-min Rain = 0
KAM2 201609Z 17011KT 33/15 A2991 RMK A01 T03250153  RH  035%=      5-min Rain = 0
KAM2 201610Z 18012KT 33/15 A2991 RMK A01 T03250154  RH  036%=      5-min Rain = 0
KAM2 201611Z 18015KT 33/15 A2991 RMK A01 T03260152  RH  035%=      5-min Rain = 0
KAM2 201612Z 19015KT 33/15 A2991 RMK A01 T03250152  RH  035%=      5-min Rain = 0
KAM2 201613Z 19011KT 32/15 A2991 RMK A01 T03240152  RH  036%=      5-min Rain = 0
KAM2 201614Z 20012G17KT 32/15 A2991 RMK A01 T03240152  RH  036%=      5-min Rain = 0
KAM2 201615Z 20014KT 33/15 A2991 RMK A01 T03250149  RH  035%=      5-min Rain = 0
KAM2 201616Z 20011KT 32/15 A2991 RMK A01 T03240152  RH  035%=      5-min Rain = 0
KAM2 201617Z 19009KT 33/15 A2991 RMK A01 T03250152  RH  035%=      5-min Rain = 0
KAM2 201618Z 19014KT 33/15 A2991 RMK A01 T03270154  RH  035%=      5-min Rain = 0
KAM2 201619Z 18014G19KT 33/15 A2991 RMK A01 T03270153  RH  035%=      5-min Rain = 0
KAM2 201620Z 18014KT 33/15 A2991 RMK A01 T03270152  RH  035%=      5-min Rain = 0
KAM2 201621Z 18014KT 33/15 A2991 RMK A01 T03270153  RH  035%=      5-min Rain = 0
KAM2 201622Z 18014KT 33/15 A2991 RMK A01 T03270152  RH  035%=      5-min Rain = 0
KAM2 201623Z 18013G19KT 33/15 A2991 RMK A01 T03270152  RH  035%=      5-min Rain = 0
KAM2 201624Z 18013KT 33/15 A2991 RMK A01 T03270152  RH  035%=      5-min Rain = 0
KAM2 201625Z 18015KT 33/15 A2991 RMK A01 T03280151  RH  034%=      5-min Rain = 0
KAM2 201626Z 20012KT 33/15 A2991 RMK A01 T03280152  RH  035%=      5-min Rain = 0
KAM2 201627Z 18010KT 33/16 A2991 RMK A01 T03280155  RH  035%=      5-min Rain = 0
KAM2 201628Z 18012KT 33/16 A2991 RMK A01 T03290155  RH  035%=      5-min Rain = 0
KAM2 201629Z 18015KT 33/15 A2991 RMK A01 T03300152  RH  034%=      5-min Rain = 0
KAM2 201630Z 19014KT 33/15 A2991 RMK A01 T03280152  RH  035%=      5-min Rain = 0
KAM2 201631Z 19014KT 33/15 A2991 RMK A01 T03280154  RH  035%=      5-min Rain = 0
KAM2 201632Z 20012KT 33/15 A2991 RMK A01 T03300154  RH  035%=      5-min Rain = 0
KAM2 201633Z 20012KT 33/16 A2991 RMK A01 T03310156  RH  035%=      5-min Rain = 0
KAM2 201634Z 19012KT 33/15 A2991 RMK A01 T03320153  RH  034%=      5-min Rain = 0
KAM2 201635Z 18012G17KT 33/16 A2991 RMK A01 T03320156  RH  035%=      5-min Rain = 0
KAM2 201636Z 20011KT 33/15 A2991 RMK A01 T03330154  RH  034%=      5-min Rain = 0
KAM2 201637Z 21015KT 34/15 A2991 RMK A01 T03350154  RH  034%=      5-min Rain = 0
KAM2 201638Z 20014KT 33/15 A2991 RMK A01 T03340150  RH  033%=      5-min Rain = 0
KAM2 201639Z 20012KT 33/15 A2991 RMK A01 T03320152  RH  034%=      5-min Rain = 0
KAM2 201640Z 19011KT 33/16 A2991 RMK A01 T03320157  RH  035%=      5-min Rain = 0
KAM2 201641Z 18013KT 34/16 A2991 RMK A01 T03350156  RH  034%=      5-min Rain = 0
KAM2 201642Z 19011KT 34/16 A2991 RMK A01 T03350155  RH  034%=      5-min Rain = 0
KAM2 201643Z 19016KT 34/16 A2991 RMK A01 T03350156  RH  034%=      5-min Rain = 0
KAM2 201644Z 19016KT 34/15 A2991 RMK A01 T03350152  RH  033%=      5-min Rain = 0
KAM2 201645Z 19018KT 33/15 A2991 RMK A01 T03330150  RH  033%=      5-min Rain = 0
KAM2 201646Z 19016KT 33/15 A2991 RMK A01 T03320150  RH  034%=      5-min Rain = 0
KAM2 201647Z 19014KT 33/15 A2991 RMK A01 T03320149  RH  033%=      5-min Rain = 0
KAM2 201648Z 18015G20KT 33/15 A2991 RMK A01 T03320151  RH  034%=      5-min Rain = 0
KAM2 201649Z 19015KT 33/15 A2991 RMK A01 T03330150  RH  033%=      5-min Rain = 0
KAM2 201650Z 19014G19KT 33/15 A2991 RMK A01 T03340152  RH  034%=      5-min Rain = 0
KAM2 201651Z 19016KT 34/15 A299 RMK A01 T03350153  RH  034%=      5-min Rain = 0
KAM2 201652Z 19011KT 34/15 A299 RMK A01 T03360154  RH  034%=      5-min Rain = 0
KAM2 201653Z 19013KT 34/15 A299 RMK A01 T03360154  RH  034%=      5-min Rain = 0
KAM2 201654Z 18012KT 34/16 A299 RMK A01 T03360157  RH  034%=      5-min Rain = 0
KAM2 201655Z 20014G19KT 34/16 A299 RMK A01 T03390157  RH  034%=      5-min Rain = 0
KAM2 201656Z 19016KT 34/15 A299 RMK A01 T03410153  RH  033%=      5-min Rain = 0
KAM2 201657Z 19011KT 34/16 A2991 RMK A01 T03420158  RH  033%=      5-min Rain = 0
KAM2 201658Z 21012KT 34/16 A2991 RMK A01 T03440156  RH  033%=      5-min Rain = 0
KAM2 201659Z 20015G20KT 34/16 A299 RMK A01 T03440157  RH  033%=      5-min Rain = 0
KAM2 201700Z 19017KT 34/15 A299 RMK A01 T03440152  RH  032%=      5-min Rain = 0
KAM2 201701Z 20016KT 34/15 A299 RMK A01 T03420151  RH  032%=      5-min Rain = 0
KAM2 201702Z 20018KT 34/15 A299 RMK A01 T03400150  RH  032%=      5-min Rain = 0
KAM2 201703Z 20016KT 34/15 A299 RMK A01 T03390151  RH  032%=      5-min Rain = 0
KAM2 201704Z 20018KT 34/15 A299 RMK A01 T03390151  RH  032%=      5-min Rain = 0
KAM2 201705Z 19015KT 34/15 A299 RMK A01 T03390152  RH  032%=      5-min Rain = 0
KAM2 201706Z 19018KT 34/15 A299 RMK A01 T03410151  RH  032%=      5-min Rain = 0
KAM2 201707Z 18012G17KT 34/16 A299 RMK A01 T03410155  RH  033%=      5-min Rain = 0
KAM2 201708Z 18015KT 34/15 A299 RMK A01 T03440154  RH  032%=      5-min Rain = 0
KAM2 201709Z 18016KT 34/15 A299 RMK A01 T03440152  RH  032%=      5-min Rain = 0
KAM2 201710Z 18014KT 34/15 A299 RMK A01 T03440152  RH  032%=      5-min Rain = 0
KAM2 201711Z 18015KT 34/15 A299 RMK A01 T03440151  RH  032%=      5-min Rain = 0
KAM2 201712Z 18015KT 34/15 A299 RMK A01 T03440154  RH  032%=      5-min Rain = 0
KAM2 201713Z 17016KT 35/15 A299 RMK A01 T03450153  RH  032%=      5-min Rain = 0
KAM2 201714Z 18016KT 35/15 A299 RMK A01 T03450153  RH  032%=      5-min Rain = 0
KAM2 201715Z 17014KT 35/15 A299 RMK A01 T03450154  RH  032%=      5-min Rain = 0
KAM2 201716Z 17015G21KT 35/15 A299 RMK A01 T03460153  RH  031%=      5-min Rain = 0
KAM2 201717Z 18018KT 35/15 A299 RMK A01 T03470153  RH  031%=      5-min Rain = 0
KAM2 201718Z 19017KT 35/15 A299 RMK A01 T03470153  RH  031%=      5-min Rain = 0
KAM2 201719Z 18011KT 35/16 A299 RMK A01 T03470155  RH  032%=      5-min Rain = 0
KAM2 201720Z 18016KT 35/15 A299 RMK A01 T03490154  RH  031%=      5-min Rain = 0
KAM2 201721Z 19017KT 35/15 A299 RMK A01 T03490153  RH  031%=      5-min Rain = 0
KAM2 201722Z 18011G16KT 35/15 A299 RMK A01 T03470154  RH  032%=      5-min Rain = 0
KAM2 201723Z 20014KT 35/16 A299 RMK A01 T03470155  RH  032%=      5-min Rain = 0
KAM2 201724Z 19013KT 35/15 A299 RMK A01 T03500154  RH  031%=      5-min Rain = 0
KAM2 201725Z 20016KT 35/16 A299 RMK A01 T03510156  RH  031%=      5-min Rain = 0
KAM2 201726Z 19014G19KT 35/15 A299 RMK A01 T03520152  RH  030%=      5-min Rain = 0
KAM2 201727Z 19017KT 35/15 A299 RMK A01 T03510153  RH  031%=      5-min Rain = 0
KAM2 201728Z 19017KT 35/15 A299 RMK A01 T03500149  RH  030%=      5-min Rain = 0
KAM2 201729Z 20013G18KT 35/15 A299 RMK A01 T03490152  RH  031%=      5-min Rain = 0
KAM2 201730Z 19016G22KT 35/15 A299 RMK A01 T03500153  RH  031%=      5-min Rain = 0
KAM2 201731Z 18017KT 35/15 A299 RMK A01 T03500150  RH  030%=      5-min Rain = 0
KAM2 201732Z 19015KT 35/15 A299 RMK A01 T03500152  RH  031%=      5-min Rain = 0
KAM2 201733Z 18018KT 35/15 A299 RMK A01 T03490153  RH  031%=      5-min Rain = 0
KAM2 201734Z 18016KT 35/15 A299 RMK A01 T03500152  RH  031%=      5-min Rain = 0
KAM2 201735Z 19015G21KT 35/15 A299 RMK A01 T03510154  RH  031%=      5-min Rain = 0
KAM2 201736Z 18019KT 35/15 A299 RMK A01 T03520153  RH  031%=      5-min Rain = 0
KAM2 201737Z 18017KT 35/15 A299 RMK A01 T03510152  RH  030%=      5-min Rain = 0
KAM2 201738Z 19012KT 35/15 A299 RMK A01 T03500154  RH  031%=      5-min Rain = 0
KAM2 201739Z 19017G22KT 35/16 A299 RMK A01 T03520155  RH  031%=      5-min Rain = 0
KAM2 201740Z 18014KT 35/16 A299 RMK A01 T03530155  RH  031%=      5-min Rain = 0
KAM2 201741Z 19012G18KT 35/16 A299 RMK A01 T03540157  RH  031%=      5-min Rain = 0
KAM2 201742Z 19014G19KT 36/16 A299 RMK A01 T03580157  RH  030%=      5-min Rain = 0
KAM2 201743Z 18016KT 36/16 A299 RMK A01 T03590155  RH  030%=      5-min Rain = 0
KAM2 201744Z 18015G20KT 36/15 A299 RMK A01 T03580154  RH  030%=      5-min Rain = 0
KAM2 201745Z 18016KT 36/15 A299 RMK A01 T03580152  RH  029%=      5-min Rain = 0
KAM2 201746Z 18016KT 36/15 A299 RMK A01 T03580150  RH  029%=      5-min Rain = 0
KAM2 201747Z 18017G22KT 36/15 A299 RMK A01 T03580151  RH  029%=      5-min Rain = 0
KAM2 201748Z 19015KT 36/15 A299 RMK A01 T03590153  RH  029%=      5-min Rain = 0
KAM2 201749Z 19013KT 36/15 A299 RMK A01 T03590153  RH  029%=      5-min Rain = 0
KAM2 201750Z 19014G19KT 36/15 A299 RMK A01 T03590153  RH  029%=      5-min Rain = 0
KAM2 201751Z 19017KT 36/15 A299 RMK A01 T03600149  RH  029%=      5-min Rain = 0
KAM2 201752Z 20015KT 36/15 A299 RMK A01 T03610152  RH  029%=      5-min Rain = 0
KAM2 201753Z 18014KT 36/15 A299 RMK A01 T03600154  RH  029%=      5-min Rain = 0
KAM2 201754Z 18014KT 36/15 A299 RMK A01 T03620153  RH  029%=      5-min Rain = 0
KAM2 201755Z 17015KT 36/15 A2989 RMK A01 T03630152  RH  029%=      5-min Rain = 0
KAM2 201756Z 18015G21KT 36/15 A2989 RMK A01 T03620152  RH  029%=      5-min Rain = 0
KAM2 201757Z 17016KT 36/15 A2989 RMK A01 T03610151  RH  029%=      5-min Rain = 0
KAM2 201758Z 18013KT 36/16 A2989 RMK A01 T03600155  RH  030%=      5-min Rain = 0
KAM2 201759Z 18015G21KT 36/16 A2989 RMK A01 T03620158  RH  030%=      5-min Rain = 0
KAM2 201800Z 18015KT 36/16 A2989 RMK A01 T03640156  RH  029%=      5-min Rain = 0
KAM2 201801Z 18013KT 37/15 A2989 RMK A01 T03660154  RH  029%=      5-min Rain = 0
KAM2 201802Z 19019G24KT 37/15 A2989 RMK A01 T03670150  RH  028%=      5-min Rain = 0
KAM2 201803Z 18012KT 37/15 A2989 RMK A01 T03650150  RH  028%=      5-min Rain = 0
KAM2 201804Z 17015G20KT 36/15 A2989 RMK A01 T03630149  RH  028%=      5-min Rain = 0
KAM2 201805Z 19013KT 36/15 A2989 RMK A01 T03620150  RH  028%=      5-min Rain = 0
KAM2 201806Z 19013KT 36/15 A2989 RMK A01 T03630154  RH  029%=      5-min Rain = 0
KAM2 201807Z 18013KT 36/16 A2989 RMK A01 T03640155  RH  029%=      5-min Rain = 0
KAM2 201808Z 17017KT 37/15 A2989 RMK A01 T03650152  RH  028%=      5-min Rain = 0
KAM2 201809Z 16018KT 37/15 A2989 RMK A01 T03660150  RH  028%=      5-min Rain = 0
KAM2 201810Z 20016KT 37/15 A2989 RMK A01 T03650149  RH  028%=      5-min Rain = 0
KAM2 201811Z 19015KT 36/15 A2989 RMK A01 T03640148  RH  028%=      5-min Rain = 0
KAM2 201812Z 19015KT 36/15 A2989 RMK A01 T03630149  RH  028%=      5-min Rain = 0
KAM2 201813Z 18014KT 36/15 A2989 RMK A01 T03630152  RH  028%=      5-min Rain = 0
KAM2 201814Z 18013KT 37/15 A2989 RMK A01 T03650150  RH  028%=      5-min Rain = 0
KAM2 201815Z 18017KT 37/16 A2989 RMK A01 T03670155  RH  029%=      5-min Rain = 0
KAM2 201816Z 18017KT 37/15 A2989 RMK A01 T03680153  RH  028%=      5-min Rain = 0
KAM2 201817Z 17015KT 37/15 A2989 RMK A01 T03650152  RH  028%=      5-min Rain = 0
KAM2 201818Z 19014KT 36/15 A2989 RMK A01 T03640152  RH  028%=      5-min Rain = 0
KAM2 201819Z 18017G23KT 37/15 A2989 RMK A01 T03670151  RH  028%=      5-min Rain = 0
KAM2 201820Z 19017KT 37/15 A2989 RMK A01 T03690149  RH  027%=      5-min Rain = 0
KAM2 201821Z 19013G18KT 37/15 A2989 RMK A01 T03670152  RH  028%=      5-min Rain = 0
KAM2 201822Z 20014G20KT 37/15 A2989 RMK A01 T03680154  RH  028%=      5-min Rain = 0
KAM2 201823Z 20015KT 37/15 A2989 RMK A01 T03700152  RH  028%=      5-min Rain = 0
KAM2 201824Z 18015G20KT 37/16 A2989 RMK A01 T03700155  RH  028%=      5-min Rain = 0
KAM2 201825Z 18015KT 37/16 A2989 RMK A01 T03700155  RH  028%=      5-min Rain = 0
KAM2 201826Z 18012KT 37/16 A2989 RMK A01 T03700155  RH  028%=      5-min Rain = 0
KAM2 201827Z 16015KT 37/15 A2988 RMK A01 T03710152  RH  027%=      5-min Rain = 0
KAM2 201828Z 17017KT 37/15 A2988 RMK A01 T03720150  RH  027%=      5-min Rain = 0
KAM2 201829Z 17013KT 37/15 A2988 RMK A01 T03730154  RH  027%=      5-min Rain = 0
KAM2 201830Z 19011G16KT 37/16 A2989 RMK A01 T03740156  RH  028%=      5-min Rain = 0
KAM2 201831Z 19012KT 38/16 A2989 RMK A01 T03750156  RH  027%=      5-min Rain = 0
KAM2 201832Z 17013KT 37/16 A2988 RMK A01 T03740155  RH  027%=      5-min Rain = 0
KAM2 201833Z 18015KT 37/16 A2988 RMK A01 T03720155  RH  028%=      5-min Rain = 0
KAM2 201834Z 19016KT 37/15 A2988 RMK A01 T03730151  RH  027%=      5-min Rain = 0
KAM2 201835Z 20015KT 37/15 A2988 RMK A01 T03710150  RH  027%=      5-min Rain = 0
KAM2 201836Z 20012KT 37/15 A2988 RMK A01 T03700150  RH  027%=      5-min Rain = 0
KAM2 201837Z 18014G19KT 37/15 A2988 RMK A01 T03720154  RH  028%=      5-min Rain = 0
KAM2 201838Z 17012KT 37/15 A2988 RMK A01 T03730154  RH  027%=      5-min Rain = 0
KAM2 201839Z 17015KT 37/15 A2988 RMK A01 T03730154  RH  027%=      5-min Rain = 0
KAM2 201840Z 18016G22KT 37/15 A2988 RMK A01 T03740150  RH  027%=      5-min Rain = 0
KAM2 201841Z 18012G18KT 37/15 A2988 RMK A01 T03730153  RH  027%=      5-min Rain = 0
KAM2 201842Z 17014KT 37/15 A2988 RMK A01 T03730154  RH  027%=      5-min Rain = 0
KAM2 201843Z 17014G20KT 37/15 A2988 RMK A01 T03730154  RH  027%=      5-min Rain = 0
KAM2 201844Z 16018KT 37/16 A2988 RMK A01 T03730155  RH  028%=      5-min Rain = 0
KAM2 201845Z 18017G22KT 37/15 A2988 RMK A01 T03740150  RH  027%=      5-min Rain = 0
KAM2 201846Z 17016KT 38/15 A2988 RMK A01 T03750153  RH  027%=      5-min Rain = 0
KAM2 201847Z 18014KT 38/15 A2988 RMK A01 T03750154  RH  027%=      5-min Rain = 0
KAM2 201848Z 18016G21KT 38/15 A2988 RMK A01 T03760154  RH  027%=      5-min Rain = 0
KAM2 201849Z 19015KT 38/16 A2988 RMK A01 T03780155  RH  027%=      5-min Rain = 0
KAM2 201850Z 19015KT 38/15 A2988 RMK A01 T03790154  RH  026%=      5-min Rain = 0
KAM2 201851Z 19013KT 38/16 A2988 RMK A01 T03780156  RH  027%=      5-min Rain = 0
KAM2 201852Z 19013KT 38/15 A2988 RMK A01 T03780150  RH  026%=      5-min Rain = 0
KAM2 201853Z 20010KT 38/15 A2988 RMK A01 T03770151  RH  026%=      5-min Rain = 0
KAM2 201854Z 19011KT 38/15 A2988 RMK A01 T03760154  RH  027%=      5-min Rain = 0
KAM2 201855Z 18012KT 38/15 A2988 RMK A01 T03770154  RH  027%=      5-min Rain = 0
KAM2 201856Z 19011KT 38/16 A2988 RMK A01 T03770156  RH  027%=      5-min Rain = 0
KAM2 201857Z 19009KT 38/16 A2988 RMK A01 T03760155  RH  027%=      5-min Rain = 0
KAM2 201858Z 19014G20KT 38/16 A2988 RMK A01 T03750156  RH  027%=      5-min Rain = 0
KAM2 201859Z 18019KT 38/15 A2988 RMK A01 T03770154  RH  027%=      5-min Rain = 0
KAM2 201900Z 18016G21KT 38/15 A2988 RMK A01 T03780150  RH  026%=      5-min Rain = 0
KAM2 201901Z 17013KT 38/15 A2988 RMK A01 T03770149  RH  026%=      5-min Rain = 0
KAM2 201902Z 19013G18KT 38/15 A2988 RMK A01 T03750151  RH  027%=      5-min Rain = 0
KAM2 201903Z 18016G23KT 38/15 A2988 RMK A01 T03750150  RH  026%=      5-min Rain = 0
KAM2 201904Z 17019KT 38/15 A2987 RMK A01 T03770150  RH  026%=      5-min Rain = 0
KAM2 201905Z 17019KT 38/15 A2987 RMK A01 T03770151  RH  026%=      5-min Rain = 0
KAM2 201906Z 18019KT 38/15 A2987 RMK A01 T03770152  RH  026%=      5-min Rain = 0
KAM2 201907Z 18012KT 38/16 A2988 RMK A01 T03770155  RH  027%=      5-min Rain = 0
KAM2 201908Z 18013KT 38/16 A2988 RMK A01 T03780155  RH  027%=      5-min Rain = 0
KAM2 201909Z 19011KT 38/15 A2987 RMK A01 T03770154  RH  027%=      5-min Rain = 0
KAM2 201910Z 18013G19KT 38/16 A2987 RMK A01 T03780155  RH  027%=      5-min Rain = 0
KAM2 201911Z 18017G22KT 38/15 A2988 RMK A01 T03810151  RH  026%=      5-min Rain = 0
KAM2 201912Z 19017G25KT 38/15 A2988 RMK A01 T03830147  RH  025%=      5-min Rain = 0
KAM2 201913Z 18014KT 38/15 A2988 RMK A01 T03810147  RH  025%=      5-min Rain = 0
KAM2 201914Z 18014KT 38/15 A2987 RMK A01 T03800150  RH  026%=      5-min Rain = 0
KAM2 201915Z 17012KT 38/15 A2987 RMK A01 T03800150  RH  026%=      5-min Rain = 0
KAM2 201916Z 20014KT 38/15 A2987 RMK A01 T03810151  RH  026%=      5-min Rain = 0
KAM2 201917Z 21012KT 38/15 A2987 RMK A01 T03830151  RH  025%=      5-min Rain = 0
KAM2 201918Z 19014G21KT 38/15 A2987 RMK A01 T03840150  RH  025%=      5-min Rain = 0
KAM2 201919Z 19016G22KT 38/15 A2987 RMK A01 T03840147  RH  025%=      5-min Rain = 0
KAM2 201920Z 17016KT 39/15 A2987 RMK A01 T03850151  RH  025%=      5-min Rain = 0
KAM2 201921Z 18017KT 39/15 A2987 RMK A01 T03870149  RH  025%=      5-min Rain = 0
KAM2 201922Z 18011G16KT 39/15 A2987 RMK A01 T03860153  RH  025%=      5-min Rain = 0
KAM2 201923Z 17016KT 39/15 A2987 RMK A01 T03880152  RH  025%=      5-min Rain = 0
KAM2 201924Z 17014G19KT 39/15 A2987 RMK A01 T03860147  RH  024%=      5-min Rain = 0
KAM2 201925Z 17012KT 38/15 A2987 RMK A01 T03840148  RH  025%=      5-min Rain = 0
KAM2 201926Z 20015KT 39/15 A2987 RMK A01 T03850147  RH  024%=      5-min Rain = 0
KAM2 201927Z 19017KT 39/14 A2987 RMK A01 T03850142  RH  024%=      5-min Rain = 0
KAM2 201928Z 20012G17KT 38/14 A2987 RMK A01 T03830140  RH  024%=      5-min Rain = 0
KAM2 201929Z 18009G17KT 38/14 A2987 RMK A01 T03830144  RH  024%=      5-min Rain = 0
KAM2 201930Z 19016G24KT 39/15 A2987 RMK A01 T03870148  RH  024%=      5-min Rain = 0
KAM2 201931Z 19017KT 39/14 A2987 RMK A01 T03890144  RH  024%=      5-min Rain = 0
KAM2 201932Z 19019KT 39/14 A2986 RMK A01 T03870142  RH  024%=      5-min Rain = 0
KAM2 201933Z 18019KT 39/14 A2987 RMK A01 T03850143  RH  024%=      5-min Rain = 0
KAM2 201934Z 18017KT 39/14 A2987 RMK A01 T03850144  RH  024%=      5-min Rain = 0
KAM2 201935Z 18014KT 39/14 A2987 RMK A01 T03850144  RH  024%=      5-min Rain = 0
KAM2 201936Z 19010G16KT 38/15 A2987 RMK A01 T03840146  RH  024%=      5-min Rain = 0
KAM2 201937Z 20016KT 39/14 A2987 RMK A01 T03870141  RH  023%=      5-min Rain = 0
KAM2 201938Z 20013KT 39/14 A2987 RMK A01 T03890140  RH  023%=      5-min Rain = 0
KAM2 201939Z 18016G21KT 39/14 A2987 RMK A01 T03900141  RH  023%=      5-min Rain = 0
KAM2 201940Z 17017KT 39/14 A2986 RMK A01 T03900142  RH  023%=      5-min Rain = 0
KAM2 201941Z 17017G22KT 39/14 A2986 RMK A01 T03880143  RH  024%=      5-min Rain = 0
KAM2 201942Z 16018KT 39/14 A2986 RMK A01 T03870137  RH  023%=      5-min Rain = 0
KAM2 201943Z 17013KT 39/14 A2986 RMK A01 T03860137  RH  023%=      5-min Rain = 0
KAM2 201944Z 17017G23KT 39/14 A2986 RMK A01 T03870138  RH  023%=      5-min Rain = 0
KAM2 201945Z 17015KT 39/14 A2986 RMK A01 T03880144  RH  024%=      5-min Rain = 0
KAM2 201946Z 16015G20KT 39/15 A2986 RMK A01 T03920145  RH  023%=      5-min Rain = 0
KAM2 201947Z 17019G24KT 39/14 A2986 RMK A01 T03940142  RH  023%=      5-min Rain = 0
KAM2 201948Z 18019KT 39/14 A2986 RMK A01 T03920142  RH  023%=      5-min Rain = 0
KAM2 201949Z 18019KT 39/14 A2986 RMK A01 T03880143  RH  024%=      5-min Rain = 0
KAM2 201950Z 19014G19KT 39/15 A2986 RMK A01 T03860147  RH  024%=      5-min Rain = 0
KAM2 201951Z 19015G20KT 39/15 A2986 RMK A01 T03870147  RH  024%=      5-min Rain = 0
KAM2 201952Z 19016KT 39/14 A2986 RMK A01 T03880144  RH  024%=      5-min Rain = 0
KAM2 201953Z 18013KT 39/14 A2986 RMK A01 T03850144  RH  024%=      5-min Rain = 0
KAM2 201954Z 18013KT 39/15 A2986 RMK A01 T03850145  RH  024%=      5-min Rain = 0
KAM2 201955Z 19011KT 39/15 A2986 RMK A01 T03870147  RH  024%=      5-min Rain = 0
KAM2 201956Z 18015KT 39/15 A2986 RMK A01 T03900147  RH  024%=      5-min Rain = 0
KAM2 201957Z 19018KT 39/13 A2986 RMK A01 T03930134  RH  022%=      5-min Rain = 0
KAM2 201958Z 18018KT 39/14 A2986 RMK A01 T03910138  RH  022%=      5-min Rain = 0
KAM2 201959Z 19016G24KT 39/14 A2986 RMK A01 T03890141  RH  023%=      5-min Rain = 0
KAM2 202000Z 18023G28KT 39/14 A2986 RMK A01 T03880139  RH  023%=      5-min Rain = 0
KAM2 202001Z 17019KT 39/14 A2986 RMK A01 T03860139  RH  023%=      5-min Rain = 0
KAM2 202002Z 18014KT 39/14 A2986 RMK A01 T03850143  RH  024%=      5-min Rain = 0
KAM2 202003Z 20014G19KT 39/14 A2986 RMK A01 T03880144  RH  024%=      5-min Rain = 0
KAM2 202004Z 19018G25KT 39/14 A2986 RMK A01 T03900135  RH  022%=      5-min Rain = 0
KAM2 202005Z 19013G19KT 39/14 A2986 RMK A01 T03880136  RH  022%=      5-min Rain = 0
KAM2 202006Z 18017G22KT 39/13 A2986 RMK A01 T03890130  RH  021%=      5-min Rain = 0
KAM2 202007Z 18016KT 39/13 A2985 RMK A01 T03880129  RH  021%=      5-min Rain = 0
KAM2 202008Z 19017KT 39/13 A2985 RMK A01 T03880134  RH  022%=      5-min Rain = 0
KAM2 202009Z 19018G23KT 39/13 A2985 RMK A01 T03910133  RH  022%=      5-min Rain = 0
KAM2 202010Z 19015KT 39/13 A2986 RMK A01 T03920133  RH  022%=      5-min Rain = 0
KAM2 202011Z 20015G20KT 39/13 A2986 RMK A01 T03900129  RH  021%=      5-min Rain = 0
KAM2 202012Z 19016G21KT 39/13 A2985 RMK A01 T03880125  RH  021%=      5-min Rain = 0
KAM2 202013Z 19019KT 39/13 A2985 RMK A01 T03880126  RH  021%=      5-min Rain = 0
KAM2 202014Z 19018KT 39/13 A2985 RMK A01 T03890126  RH  021%=      5-min Rain = 0
KAM2 202015Z 20017KT 39/13 A2985 RMK A01 T03880127  RH  021%=      5-min Rain = 0
KAM2 202016Z 19015G21KT 39/13 A2985 RMK A01 T03870126  RH  021%=      5-min Rain = 0
KAM2 202017Z 20016KT 39/12 A2985 RMK A01 T03870124  RH  021%=      5-min Rain = 0
KAM2 202018Z 19016KT 39/13 A2985 RMK A01 T03880130  RH  022%=      5-min Rain = 0
KAM2 202019Z 20014KT 39/13 A2985 RMK A01 T03890130  RH  021%=      5-min Rain = 0
KAM2 202020Z 19012G17KT 39/14 A2985 RMK A01 T03900137  RH  022%=      5-min Rain = 0
KAM2 202021Z 19014KT 39/13 A2985 RMK A01 T03910131  RH  021%=      5-min Rain = 0
KAM2 202022Z 20015KT 39/13 A2985 RMK A01 T03900133  RH  022%=      5-min Rain = 0
KAM2 202023Z 18016KT 39/13 A2985 RMK A01 T03910134  RH  022%=      5-min Rain = 0
KAM2 202024Z 18019KT 39/13 A2985 RMK A01 T03910133  RH  022%=      5-min Rain = 0
KAM2 202025Z 18016G23KT 39/14 A2985 RMK A01 T03900137  RH  022%=      5-min Rain = 0
KAM2 202026Z 19015KT 39/14 A2986 RMK A01 T03900139  RH  023%=      5-min Rain = 0
KAM2 202027Z 18012KT 39/13 A2985 RMK A01 T03910134  RH  022%=      5-min Rain = 0
KAM2 202028Z 19009KT 39/14 A2985 RMK A01 T03890136  RH  022%=      5-min Rain = 0
KAM2 202029Z 19012KT 39/14 A2985 RMK A01 T03890137  RH  022%=      5-min Rain = 0
KAM2 202030Z 20018G24KT 39/14 A2985 RMK A01 T03900138  RH  022%=      5-min Rain = 0
KAM2 202031Z 19019KT 39/13 A2985 RMK A01 T03900133  RH  022%=      5-min Rain = 0
KAM2 202032Z 19016KT 39/13 A2985 RMK A01 T03890134  RH  022%=      5-min Rain = 0
KAM2 202033Z 19014KT 39/14 A2985 RMK A01 T03900137  RH  022%=      5-min Rain = 0
KAM2 202034Z 19012KT 39/14 A2985 RMK A01 T03930141  RH  023%=      5-min Rain = 0
KAM2 202035Z 19017G24KT 40/14 A2985 RMK A01 T03960138  RH  022%=      5-min Rain = 0
KAM2 202036Z 19018G24KT 40/13 A2985 RMK A01 T03960133  RH  021%=      5-min Rain = 0
KAM2 202037Z 20011G16KT 39/13 A2985 RMK A01 T03930134  RH  022%=      5-min Rain = 0
KAM2 202038Z 19015KT 39/14 A2985 RMK A01 T03920136  RH  022%=      5-min Rain = 0
KAM2 202039Z 18016KT 39/14 A2985 RMK A01 T03920138  RH  022%=      5-min Rain = 0
KAM2 202040Z 18015KT 39/14 A2985 RMK A01 T03940135  RH  022%=      5-min Rain = 0
KAM2 202041Z 17015KT 39/13 A2985 RMK A01 T03930131  RH  021%=      5-min Rain = 0
KAM2 202042Z 18016KT 39/13 A2985 RMK A01 T03910133  RH  022%=      5-min Rain = 0
KAM2 202043Z 19016G22KT 39/14 A2985 RMK A01 T03900136  RH  022%=      5-min Rain = 0
KAM2 202044Z 18018G24KT 39/14 A2985 RMK A01 T03930137  RH  022%=      5-min Rain = 0
KAM2 202045Z 17019KT 39/13 A2985 RMK A01 T03940134  RH  021%=      5-min Rain = 0
KAM2 202046Z 18018KT 39/13 A2985 RMK A01 T03930134  RH  022%=      5-min Rain = 0
KAM2 202047Z 18013KT 39/13 A2985 RMK A01 T03910134  RH  022%=      5-min Rain = 0
KAM2 202048Z 19011KT 39/13 A2985 RMK A01 T03900134  RH  022%=      5-min Rain = 0
KAM2 202049Z 19012KT 39/14 A2985 RMK A01 T03890136  RH  022%=      5-min Rain = 0
KAM2 202050Z 19014G20KT 39/14 A2985 RMK A01 T03890136  RH  022%=      5-min Rain = 0
KAM2 202051Z 18021G26KT 39/14 A2985 RMK A01 T03900138  RH  023%=      5-min Rain = 0
KAM2 202052Z 18023KT 39/13 A2985 RMK A01 T03920134  RH  022%=      5-min Rain = 0
KAM2 202053Z 17019KT 39/13 A2985 RMK A01 T03910133  RH  022%=      5-min Rain = 0
KAM2 202054Z 16017KT 39/13 A2985 RMK A01 T03910132  RH  022%=      5-min Rain = 0
KAM2 202055Z 17013KT 39/13 A2985 RMK A01 T03900133  RH  022%=      5-min Rain = 0
KAM2 202056Z 17018G23KT 39/13 A2985 RMK A01 T03900133  RH  022%=      5-min Rain = 0
KAM2 202057Z 18020KT 39/13 A2984 RMK A01 T03910132  RH  022%=      5-min Rain = 0
KAM2 202058Z 18014G23KT 39/13 A2985 RMK A01 T03930130  RH  021%=      5-min Rain = 0
KAM2 202059Z 18015KT 39/13 A2985 RMK A01 T03930132  RH  021%=      5-min Rain = 0
KAM2 202100Z 18013KT 39/13 A2985 RMK A01 T03940128  RH  021%=      5-min Rain = 0
KAM2 202101Z 18011KT 39/13 A2985 RMK A01 T03940134  RH  021%=      5-min Rain = 0
KAM2 202102Z 19018G23KT 40/14 A2985 RMK A01 T03980135  RH  021%=      5-min Rain = 0
KAM2 202103Z 17018G23KT 40/13 A2985 RMK A01 T03970133  RH  021%=      5-min Rain = 0
KAM2 202104Z 17016G21KT 40/13 A2985 RMK A01 T03960129  RH  021%=      5-min Rain = 0
KAM2 202105Z 18012KT 39/13 A2985 RMK A01 T03920129  RH  021%=      5-min Rain = 0
KAM2 202106Z 20011KT 39/13 A2985 RMK A01 T03900132  RH  022%=      5-min Rain = 0
KAM2 202107Z 19011KT 39/13 A2985 RMK A01 T03910133  RH  022%=      5-min Rain = 0
KAM2 202108Z 18013KT 39/14 A2985 RMK A01 T03930136  RH  022%=      5-min Rain = 0
KAM2 202109Z 19016KT 40/13 A2985 RMK A01 T03950134  RH  021%=      5-min Rain = 0
KAM2 202110Z 18016G21KT 40/13 A2985 RMK A01 T03950133  RH  021%=      5-min Rain = 0
KAM2 202111Z 18018KT 39/13 A2985 RMK A01 T03940130  RH  021%=      5-min Rain = 0
KAM2 202112Z 18014G19KT 39/13 A2985 RMK A01 T03930126  RH  021%=      5-min Rain = 0
KAM2 202113Z 19013G18KT 39/13 A2985 RMK A01 T03910129  RH  021%=      5-min Rain = 0
KAM2 202114Z 19011G16KT 39/13 A2985 RMK A01 T03910131  RH  021%=      5-min Rain = 0
KAM2 202115Z 19014G19KT 39/13 A2985 RMK A01 T03910132  RH  022%=      5-min Rain = 0
KAM2 202116Z 17015G20KT 39/14 A2984 RMK A01 T03930137  RH  022%=      5-min Rain = 0
KAM2 202117Z 16018G23KT 39/14 A2984 RMK A01 T03940137  RH  022%=      5-min Rain = 0
KAM2 202118Z 16018G25KT 39/14 A2984 RMK A01 T03940137  RH  022%=      5-min Rain = 0
KAM2 202119Z 18020KT 39/14 A2984 RMK A01 T03940137  RH  022%=      5-min Rain = 0
KAM2 202120Z 19016KT 39/14 A2984 RMK A01 T03940135  RH  022%=      5-min Rain = 0
KAM2 202121Z 19014G19KT 39/14 A2984 RMK A01 T03940135  RH  022%=      5-min Rain = 0
KAM2 202122Z 19018KT 40/13 A2984 RMK A01 T03950134  RH  021%=      5-min Rain = 0
KAM2 202123Z 19012G17KT 40/13 A2984 RMK A01 T03950134  RH  021%=      5-min Rain = 0
KAM2 202124Z 18014KT 40/14 A2984 RMK A01 T03950135  RH  022%=      5-min Rain = 0
KAM2 202125Z 19012KT 40/14 A2984 RMK A01 T03960135  RH  021%=      5-min Rain = 0
KAM2 202126Z 17010KT 40/14 A2984 RMK A01 T03960139  RH  022%=      5-min Rain = 0
KAM2 202127Z 18013KT 40/14 A2984 RMK A01 T03970135  RH  021%=      5-min Rain = 0
KAM2 202128Z 18017G22KT 40/13 A2984 RMK A01 T03960130  RH  021%=      5-min Rain = 0
KAM2 202129Z 19017KT 40/13 A2984 RMK A01 T03950134  RH  021%=      5-min Rain = 0
KAM2 202130Z 19019G24KT 40/13 A2984 RMK A01 T03950128  RH  021%=      5-min Rain = 0
KAM2 202131Z 19013G18KT 39/13 A2984 RMK A01 T03930129  RH  021%=      5-min Rain = 0
KAM2 202132Z 18013KT 39/13 A2984 RMK A01 T03910132  RH  022%=      5-min Rain = 0
KAM2 202133Z 19011KT 39/13 A2984 RMK A01 T03920134  RH  022%=      5-min Rain = 0
KAM2 202134Z 19010KT 39/14 A2984 RMK A01 T03920136  RH  022%=      5-min Rain = 0
KAM2 202135Z 20010G16KT 40/14 A2984 RMK A01 T03950140  RH  022%=      5-min Rain = 0
KAM2 202136Z 19017KT 40/14 A2984 RMK A01 T03980139  RH  022%=      5-min Rain = 0
KAM2 202137Z 20017G22KT 40/13 A2984 RMK A01 T03980128  RH  020%=      5-min Rain = 0
KAM2 202138Z 21015KT 40/13 A2984 RMK A01 T03950128  RH  021%=      5-min Rain = 0
KAM2 202139Z 20016KT 39/13 A2984 RMK A01 T03930125  RH  020%=      5-min Rain = 0
KAM2 202140Z 18015KT 39/13 A2984 RMK A01 T03910130  RH  021%=      5-min Rain = 0
KAM2 202141Z 17015G23KT 39/14 A2984 RMK A01 T03920136  RH  022%=      5-min Rain = 0
KAM2 202142Z 17019KT 39/14 A2984 RMK A01 T03930136  RH  022%=      5-min Rain = 0
KAM2 202143Z 17017KT 39/13 A2984 RMK A01 T03930134  RH  022%=      5-min Rain = 0
KAM2 202144Z 17020KT 39/13 A2984 RMK A01 T03920134  RH  022%=      5-min Rain = 0
KAM2 202145Z 17015KT 39/14 A2984 RMK A01 T03910135  RH  022%=      5-min Rain = 0
KAM2 202146Z 18014KT 39/14 A2984 RMK A01 T03910137  RH  022%=      5-min Rain = 0
KAM2 202147Z 18014G19KT 39/14 A2984 RMK A01 T03920136  RH  022%=      5-min Rain = 0
KAM2 202148Z 17016KT 39/14 A2983 RMK A01 T03930135  RH  022%=      5-min Rain = 0
KAM2 202149Z 16013G20KT 39/13 A2983 RMK A01 T03920132  RH  021%=      5-min Rain = 0
KAM2 202150Z 21013G18KT 39/13 A2983 RMK A01 T03910134  RH  022%=      5-min Rain = 0
KAM2 202151Z 21013KT 39/14 A2983 RMK A01 T03920136  RH  022%=      5-min Rain = 0
KAM2 202152Z 19014KT 39/13 A2984 RMK A01 T03930132  RH  021%=      5-min Rain = 0
KAM2 202153Z 19013G18KT 39/13 A2984 RMK A01 T03940133  RH  021%=      5-min Rain = 0
KAM2 202154Z 19016KT 39/13 A2984 RMK A01 T03940132  RH  021%=      5-min Rain = 0
KAM2 202155Z 18016KT 39/13 A2984 RMK A01 T03940132  RH  021%=      5-min Rain = 0
KAM2 202156Z 17016KT 39/13 A2984 RMK A01 T03920130  RH  021%=      5-min Rain = 0
KAM2 202157Z 17015KT 39/13 A2983 RMK A01 T03910132  RH  022%=      5-min Rain = 0
KAM2 202158Z 20013KT 39/13 A2984 RMK A01 T03930134  RH  022%=      5-min Rain = 0
KAM2 202159Z 19012KT 39/13 A2984 RMK A01 T03940127  RH  021%=      5-min Rain = 0
KAM2 202200Z 18013KT 39/13 A2984 RMK A01 T03930131  RH  021%=      5-min Rain = 0
KAM2 202201Z 17014G21KT 39/13 A2983 RMK A01 T03940129  RH  021%=      5-min Rain = 0
KAM2 202202Z 17017KT 39/13 A2983 RMK A01 T03940132  RH  021%=      5-min Rain = 0
KAM2 202203Z 18019G24KT 39/13 A2983 RMK A01 T03940131  RH  021%=      5-min Rain = 0
KAM2 202204Z 18021KT 39/13 A2983 RMK A01 T03930133  RH  021%=      5-min Rain = 0
KAM2 202205Z 17018KT 39/13 A2983 RMK A01 T03920134  RH  022%=      5-min Rain = 0
KAM2 202206Z 17020G26KT 39/14 A2983 RMK A01 T03920135  RH  022%=      5-min Rain = 0
KAM2 202207Z 19018G23KT 39/14 A2983 RMK A01 T03930135  RH  022%=      5-min Rain = 0
KAM2 202208Z 18018G23KT 39/13 A2983 RMK A01 T03920134  RH  022%=      5-min Rain = 0
KAM2 202209Z 17020KT 39/13 A2983 RMK A01 T03920131  RH  021%=      5-min Rain = 0
KAM2 202210Z 17011KT 39/13 A2983 RMK A01 T03900133  RH  022%=      5-min Rain = 0
KAM2 202211Z 17014KT 39/14 A2983 RMK A01 T03920137  RH  022%=      5-min Rain = 0
KAM2 202212Z 16016KT 40/13 A2983 RMK A01 T03950134  RH  021%=      5-min Rain = 0
KAM2 202213Z 15017KT 40/13 A2983 RMK A01 T03950130  RH  021%=      5-min Rain = 0
KAM2 202214Z 15012G20KT 39/13 A2983 RMK A01 T03930130  RH  021%=      5-min Rain = 0
KAM2 202215Z 15019KT 39/13 A2983 RMK A01 T03930132  RH  021%=      5-min Rain = 0
KAM2 202216Z 16016KT 39/13 A2983 RMK A01 T03930131  RH  021%=      5-min Rain = 0
KAM2 202217Z 18017KT 39/13 A2983 RMK A01 T03930134  RH  022%=      5-min Rain = 0
KAM2 202218Z 18016KT 39/13 A2983 RMK A01 T03940134  RH  022%=      5-min Rain = 0
KAM2 202219Z 19010KT 39/14 A2983 RMK A01 T03940136  RH  022%=      5-min Rain = 0
KAM2 202220Z 19014KT 40/14 A2983 RMK A01 T03950135  RH  022%=      5-min Rain = 0
KAM2 202221Z 21014KT 39/13 A2983 RMK A01 T03940134  RH  022%=      5-min Rain = 0
KAM2 202222Z 20013KT 39/13 A2983 RMK A01 T03920132  RH  021%=      5-min Rain = 0
KAM2 202223Z 19016G21KT 39/14 A2983 RMK A01 T03910135  RH  022%=      5-min Rain = 0
KAM2 202224Z 19017G22KT 39/13 A2983 RMK A01 T03930133  RH  022%=      5-min Rain = 0
KAM2 202225Z 18019G24KT 39/13 A2983 RMK A01 T03940132  RH  021%=      5-min Rain = 0
KAM2 202226Z 18015G21KT 39/13 A2983 RMK A01 T03940132  RH  021%=      5-min Rain = 0
KAM2 202227Z 18013KT 40/13 A2983 RMK A01 T03960134  RH  021%=      5-min Rain = 0
KAM2 202228Z 18013KT 40/13 A2983 RMK A01 T03960132  RH  021%=      5-min Rain = 0
KAM2 202229Z 17014G20KT 40/13 A2983 RMK A01 T03950133  RH  021%=      5-min Rain = 0
KAM2 202230Z 17015G20KT 40/13 A2983 RMK A01 T03950132  RH  021%=      5-min Rain = 0
KAM2 202231Z 17014KT 39/13 A2983 RMK A01 T03930130  RH  021%=      5-min Rain = 0
KAM2 202232Z 18013KT 39/13 A2983 RMK A01 T03920131  RH  021%=      5-min Rain = 0
KAM2 202233Z 16009KT 39/14 A2983 RMK A01 T03930136  RH  022%=      5-min Rain = 0
KAM2 202234Z 16017G22KT 40/14 A2982 RMK A01 T03950136  RH  022%=      5-min Rain = 0
KAM2 202235Z 16016KT 40/13 A2982 RMK A01 T03960133  RH  021%=      5-min Rain = 0
KAM2 202236Z 16017KT 40/13 A2982 RMK A01 T03950130  RH  021%=      5-min Rain = 0
KAM2 202237Z 17015KT 39/13 A2982 RMK A01 T03940131  RH  021%=      5-min Rain = 0
KAM2 202238Z 18012KT 39/13 A2982 RMK A01 T03930133  RH  022%=      5-min Rain = 0
KAM2 202239Z 18014KT 39/13 A2982 RMK A01 T03930134  RH  022%=      5-min Rain = 0
KAM2 202240Z 19015KT 39/13 A2982 RMK A01 T03930133  RH  022%=      5-min Rain = 0
KAM2 202241Z 19017G22KT 39/13 A2982 RMK A01 T03920133  RH  022%=      5-min Rain = 0
KAM2 202242Z 19016G23KT 39/13 A2982 RMK A01 T03910132  RH  022%=      5-min Rain = 0
KAM2 202243Z 18015KT 39/13 A2982 RMK A01 T03900134  RH  022%=      5-min Rain = 0
KAM2 202244Z 18015KT 39/13 A2982 RMK A01 T03900133  RH  022%=      5-min Rain = 0
KAM2 202245Z 17013KT 39/13 A2982 RMK A01 T03900132  RH  022%=      5-min Rain = 0
KAM2 202246Z 16017KT 39/13 A2982 RMK A01 T03910132  RH  022%=      5-min Rain = 0
KAM2 202247Z 17016KT 39/13 A2982 RMK A01 T03910133  RH  022%=      5-min Rain = 0
KAM2 202248Z 18022KT 39/13 A2982 RMK A01 T03920130  RH  021%=      5-min Rain = 0
KAM2 202249Z 17016KT 39/13 A2982 RMK A01 T03900128  RH  021%=      5-min Rain = 0
KAM2 202250Z 17015G20KT 39/13 A2982 RMK A01 T03890131  RH  022%=      5-min Rain = 0
KAM2 202251Z 18017KT 39/13 A2982 RMK A01 T03890129  RH  021%=      5-min Rain = 0
KAM2 202252Z 17015KT 39/13 A2982 RMK A01 T03890132  RH  022%=      5-min Rain = 0
KAM2 202253Z 17017KT 39/14 A2982 RMK A01 T03900135  RH  022%=      5-min Rain = 0
KAM2 202254Z 16018KT 39/13 A2982 RMK A01 T03910134  RH  022%=      5-min Rain = 0
KAM2 202255Z 17017G22KT 39/14 A2982 RMK A01 T03910135  RH  022%=      5-min Rain = 0
KAM2 202256Z 17024G29KT 39/13 A2982 RMK A01 T03910133  RH  022%=      5-min Rain = 0
KAM2 202257Z 19017KT 39/13 A2982 RMK A01 T03910134  RH  022%=      5-min Rain = 0
KAM2 202258Z 20016KT 39/13 A2982 RMK A01 T03910134  RH  022%=      5-min Rain = 0
KAM2 202259Z 19015KT 39/14 A2982 RMK A01 T03900135  RH  022%=      5-min Rain = 0
KAM2 202300Z 17017KT 39/13 A2982 RMK A01 T03900131  RH  022%=      5-min Rain = 0
KAM2 202301Z 16018KT 39/13 A2982 RMK A01 T03900130  RH  021%=      5-min Rain = 0
KAM2 202302Z 17018KT 39/13 A2982 RMK A01 T03890129  RH  021%=      5-min Rain = 0
KAM2 202303Z 18011KT 39/13 A2982 RMK A01 T03890131  RH  022%=      5-min Rain = 0
KAM2 202304Z 18014KT 39/13 A2982 RMK A01 T03890132  RH  022%=      5-min Rain = 0
KAM2 202305Z 17014KT 39/13 A2982 RMK A01 T03890129  RH  021%=      5-min Rain = 0
KAM2 202306Z 18014KT 39/13 A2982 RMK A01 T03890129  RH  021%=      5-min Rain = 0
KAM2 202307Z 18014KT 39/13 A2982 RMK A01 T03880131  RH  022%=      5-min Rain = 0
KAM2 202308Z 18014KT 39/13 A2982 RMK A01 T03880132  RH  022%=      5-min Rain = 0
KAM2 202309Z 18013KT 39/13 A2982 RMK A01 T03880134  RH  022%=      5-min Rain = 0
KAM2 202310Z 19015KT 39/14 A2982 RMK A01 T03890138  RH  023%=      5-min Rain = 0
KAM2 202311Z 18018KT 39/14 A2982 RMK A01 T03900138  RH  023%=      5-min Rain = 0
KAM2 202312Z 19014KT 39/14 A2982 RMK A01 T03880135  RH  022%=      5-min Rain = 0
KAM2 202313Z 17012G17KT 39/14 A2982 RMK A01 T03870138  RH  023%=      5-min Rain = 0
KAM2 202314Z 18014G19KT 39/14 A2982 RMK A01 T03870140  RH  023%=      5-min Rain = 0
KAM2 202315Z 18017KT 39/14 A2981 RMK A01 T03880136  RH  023%=      5-min Rain = 0
KAM2 202316Z 16015KT 39/14 A2981 RMK A01 T03870139  RH  023%=      5-min Rain = 0
KAM2 202317Z 16019KT 39/14 A2981 RMK A01 T03870139  RH  023%=      5-min Rain = 0
KAM2 202318Z 18014G19KT 39/14 A2981 RMK A01 T03870143  RH  024%=      5-min Rain = 0
KAM2 202319Z 18016G21KT 39/14 A2981 RMK A01 T03890142  RH  023%=      5-min Rain = 0
KAM2 202320Z 19017KT 39/14 A2981 RMK A01 T03890137  RH  023%=      5-min Rain = 0
KAM2 202321Z 19015KT 39/13 A2981 RMK A01 T03880134  RH  022%=      5-min Rain = 0
KAM2 202322Z 19014G19KT 39/14 A2981 RMK A01 T03870135  RH  023%=      5-min Rain = 0
KAM2 202323Z 18018KT 39/13 A2981 RMK A01 T03870134  RH  022%=      5-min Rain = 0
KAM2 202324Z 18019G24KT 39/13 A2981 RMK A01 T03860134  RH  022%=      5-min Rain = 0
KAM2 202325Z 18019G24KT 39/13 A2981 RMK A01 T03850134  RH  023%=      5-min Rain = 0
KAM2 202326Z 17020KT 39/13 A2981 RMK A01 T03850132  RH  022%=      5-min Rain = 0
KAM2 202327Z 18018KT 38/13 A2981 RMK A01 T03840134  RH  023%=      5-min Rain = 0
KAM2 202328Z 19017KT 38/14 A2981 RMK A01 T03840136  RH  023%=      5-min Rain = 0
KAM2 202329Z 18014KT 38/14 A2981 RMK A01 T03840137  RH  023%=      5-min Rain = 0
KAM2 202330Z 16017KT 38/14 A2981 RMK A01 T03840139  RH  023%=      5-min Rain = 0
KAM2 202331Z 16015KT 39/14 A2981 RMK A01 T03850138  RH  023%=      5-min Rain = 0
KAM2 202332Z 16012KT 39/14 A2981 RMK A01 T03850137  RH  023%=      5-min Rain = 0
KAM2 202333Z 17016KT 39/14 A2981 RMK A01 T03850138  RH  023%=      5-min Rain = 0
KAM2 202334Z 16017KT 38/14 A2981 RMK A01 T03840135  RH  023%=      5-min Rain = 0
KAM2 202335Z 17017G25KT 38/14 A2981 RMK A01 T03840135  RH  023%=      5-min Rain = 0
KAM2 202336Z 17020KT 39/13 A2981 RMK A01 T03850133  RH  022%=      5-min Rain = 0
KAM2 202337Z 17016G22KT 38/13 A2981 RMK A01 T03840134  RH  023%=      5-min Rain = 0
KAM2 202338Z 17018KT 38/14 A2981 RMK A01 T03840135  RH  023%=      5-min Rain = 0
KAM2 202339Z 17017KT 38/14 A2981 RMK A01 T03840136  RH  023%=      5-min Rain = 0
KAM2 202340Z 17016KT 38/14 A2981 RMK A01 T03840137  RH  023%=      5-min Rain = 0
KAM2 202341Z 16020KT 38/14 A2981 RMK A01 T03830138  RH  023%=      5-min Rain = 0
KAM2 202342Z 16017KT 38/14 A2981 RMK A01 T03820137  RH  023%=      5-min Rain = 0
KAM2 202343Z 17018KT 38/14 A2981 RMK A01 T03820138  RH  024%=      5-min Rain = 0
KAM2 202344Z 17016KT 38/14 A2981 RMK A01 T03820137  RH  023%=      5-min Rain = 0
KAM2 202345Z 17019KT 38/14 A2981 RMK A01 T03820138  RH  023%=      5-min Rain = 0
KAM2 202346Z 17019KT 38/14 A2981 RMK A01 T03830136  RH  023%=      5-min Rain = 0
KAM2 202347Z 17016KT 38/14 A2981 RMK A01 T03820137  RH  023%=      5-min Rain = 0
KAM2 202348Z 18014KT 38/14 A2981 RMK A01 T03820139  RH  024%=      5-min Rain = 0
KAM2 202349Z 17016KT 38/14 A2981 RMK A01 T03830140  RH  024%=      5-min Rain = 0
KAM2 202350Z 16017G22KT 38/14 A2981 RMK A01 T03820140  RH  024%=      5-min Rain = 0
KAM2 202351Z 17018KT 38/14 A2981 RMK A01 T03820140  RH  024%=      5-min Rain = 0
KAM2 202352Z 16017KT 38/14 A2981 RMK A01 T03810140  RH  024%=      5-min Rain = 0
KAM2 202353Z 16018KT 38/14 A2981 RMK A01 T03810138  RH  024%=      5-min Rain = 0
KAM2 202354Z 16016KT 38/14 A2981 RMK A01 T03810138  RH  024%=      5-min Rain = 0
KAM2 202355Z 17013G18KT 38/14 A2981 RMK A01 T03800139  RH  024%=      5-min Rain = 0
KAM2 202356Z 16009KT 38/14 A2981 RMK A01 T03800142  RH  024%=      5-min Rain = 0
KAM2 202357Z 16013KT 38/14 A2981 RMK A01 T03800142  RH  024%=      5-min Rain = 0
KAM2 202358Z 16016KT 38/14 A2981 RMK A01 T03810142  RH  024%=      5-min Rain = 0
KAM2 202359Z 16016KT 38/14 A2981 RMK A01 T03810142  RH  024%=      5-min Rain = 0
KAM2 210000Z 17014KT 38/14 A2981 RMK A01 T03810141  RH  024%=      5-min Rain = 0
KAM2 210001Z 17016G21KT 38/14 A2981 RMK A01 T03810143  RH  024%=      5-min Rain = 0
KAM2 210002Z 17016KT 38/14 A2981 RMK A01 T03810141  RH  024%=      5-min Rain = 0
KAM2 210003Z 17015G20KT 38/14 A2981 RMK A01 T03810143  RH  024%=      5-min Rain = 0
KAM2 210004Z 17014KT 38/14 A2981 RMK A01 T03800143  RH  025%=      5-min Rain = 0
KAM2 210005Z 17013G18KT 38/14 A2981 RMK A01 T03800143  RH  025%=      5-min Rain = 0
KAM2 210006Z 17017KT 38/14 A2981 RMK A01 T03790143  RH  025%=      5-min Rain = 0
KAM2 210007Z 17015G20KT 38/14 A2981 RMK A01 T03790143  RH  025%=      5-min Rain = 0
KAM2 210008Z 17019KT 38/14 A2981 RMK A01 T03790141  RH  024%=      5-min Rain = 0
KAM2 210009Z 16016KT 38/14 A2981 RMK A01 T03780141  RH  024%=      5-min Rain = 0
KAM2 210010Z 17018G23KT 38/14 A2981 RMK A01 T03780140  RH  024%=      5-min Rain = 0
KAM2 210011Z 17017KT 38/14 A2981 RMK A01 T03780139  RH  024%=      5-min Rain = 0
KAM2 210012Z 16014KT 38/14 A2981 RMK A01 T03780143  RH  025%=      5-min Rain = 0
KAM2 210013Z 16016G23KT 38/15 A2981 RMK A01 T03780149  RH  026%=      5-min Rain = 0
KAM2 210014Z 17018KT 38/15 A2981 RMK A01 T03780148  RH  026%=      5-min Rain = 0
KAM2 210015Z 15017KT 38/15 A2981 RMK A01 T03760148  RH  026%=      5-min Rain = 0
KAM2 210016Z 16019KT 38/15 A2981 RMK A01 T03750147  RH  026%=      5-min Rain = 0
KAM2 210017Z 15020KT 38/15 A2981 RMK A01 T03750146  RH  026%=      5-min Rain = 0
KAM2 210018Z 15016KT 37/15 A2981 RMK A01 T03740146  RH  026%=      5-min Rain = 0
KAM2 210019Z 17017KT 37/15 A2981 RMK A01 T03740147  RH  026%=      5-min Rain = 0
KAM2 210020Z 16015KT 37/15 A2981 RMK A01 T03740147  RH  026%=      5-min Rain = 0
KAM2 210021Z 16015KT 37/15 A2981 RMK A01 T03740148  RH  026%=      5-min Rain = 0
KAM2 210022Z 16014KT 37/15 A2981 RMK A01 T03740149  RH  026%=      5-min Rain = 0
KAM2 210023Z 17015KT 37/15 A2981 RMK A01 T03740149  RH  026%=      5-min Rain = 0
KAM2 210024Z 17016KT 37/15 A2981 RMK A01 T03740147  RH  026%=      5-min Rain = 0
KAM2 210025Z 17014KT 37/15 A2981 RMK A01 T03740146  RH  026%=      5-min Rain = 0
KAM2 210026Z 17017KT 37/15 A2981 RMK A01 T03740146  RH  026%=      5-min Rain = 0
KAM2 210027Z 16020KT 37/15 A2981 RMK A01 T03740145  RH  026%=      5-min Rain = 0
KAM2 210028Z 16017G22KT 37/14 A2981 RMK A01 T03730144  RH  026%=      5-min Rain = 0
KAM2 210029Z 17018KT 37/15 A2981 RMK A01 T03730146  RH  026%=      5-min Rain = 0
KAM2 210030Z 16020KT 37/15 A2981 RMK A01 T03730147  RH  026%=      5-min Rain = 0
KAM2 210031Z 16019KT 37/15 A2981 RMK A01 T03720147  RH  026%=      5-min Rain = 0
KAM2 210032Z 16020KT 37/15 A2981 RMK A01 T03710147  RH  026%=      5-min Rain = 0
KAM2 210033Z 16019KT 37/15 A2982 RMK A01 T03710148  RH  027%=      5-min Rain = 0
KAM2 210034Z 16017KT 37/15 A2982 RMK A01 T03710148  RH  027%=      5-min Rain = 0
KAM2 210035Z 15013KT 37/15 A2982 RMK A01 T03700149  RH  027%=      5-min Rain = 0
KAM2 210036Z 16015KT 37/15 A2982 RMK A01 T03700150  RH  027%=      5-min Rain = 0
KAM2 210037Z 15018G23KT 37/15 A2982 RMK A01 T03700148  RH  027%=      5-min Rain = 0
KAM2 210038Z 16016KT 37/15 A2982 RMK A01 T03690148  RH  027%=      5-min Rain = 0
KAM2 210039Z 17018KT 37/15 A2982 RMK A01 T03690149  RH  027%=      5-min Rain = 0
KAM2 210040Z 17017KT 37/15 A2982 RMK A01 T03690149  RH  027%=      5-min Rain = 0
KAM2 210041Z 16014KT 37/15 A2982 RMK A01 T03690151  RH  027%=      5-min Rain = 0
KAM2 210042Z 15019KT 37/15 A2982 RMK A01 T03690151  RH  027%=      5-min Rain = 0
KAM2 210043Z 16018KT 37/15 A2982 RMK A01 T03680148  RH  027%=      5-min Rain = 0
KAM2 210044Z 16020KT 37/15 A2982 RMK A01 T03670149  RH  027%=      5-min Rain = 0
KAM2 210045Z 16018G24KT 37/15 A2982 RMK A01 T03680148  RH  027%=      5-min Rain = 0
KAM2 210046Z 16018KT 37/15 A2982 RMK A01 T03670149  RH  027%=      5-min Rain = 0
KAM2 210047Z 17015G21KT 37/15 A2982 RMK A01 T03670148  RH  027%=      5-min Rain = 0
KAM2 210048Z 16017G22KT 37/15 A2982 RMK A01 T03660149  RH  028%=      5-min Rain = 0
KAM2 210049Z 15017KT 37/15 A2982 RMK A01 T03660149  RH  027%=      5-min Rain = 0
KAM2 210050Z 16017KT 37/15 A2982 RMK A01 T03650149  RH  028%=      5-min Rain = 0
KAM2 210051Z 16018KT 37/15 A2982 RMK A01 T03650149  RH  028%=      5-min Rain = 0
KAM2 210052Z 16015KT 37/15 A2982 RMK A01 T03650150  RH  028%=      5-min Rain = 0
KAM2 210053Z 16013KT 36/15 A2982 RMK A01 T03640150  RH  028%=      5-min Rain = 0
KAM2 210054Z 16015KT 36/15 A2982 RMK A01 T03640151  RH  028%=      5-min Rain = 0
KAM2 210055Z 16015KT 36/15 A2982 RMK A01 T03630150  RH  028%=      5-min Rain = 0
KAM2 210056Z 16016KT 36/15 A2982 RMK A01 T03630149  RH  028%=      5-min Rain = 0
KAM2 210057Z 16015KT 36/15 A2982 RMK A01 T03630149  RH  028%=      5-min Rain = 0
KAM2 210058Z 16014KT 36/15 A2982 RMK A01 T03630149  RH  028%=      5-min Rain = 0
KAM2 210059Z 16016KT 36/15 A2982 RMK A01 T03620148  RH  028%=      5-min Rain = 0
KAM2 210100Z 17012KT 36/15 A2982 RMK A01 T03620149  RH  028%=      5-min Rain = 0
KAM2 210101Z 16014KT 36/15 A2982 RMK A01 T03620150  RH  028%=      5-min Rain = 0
KAM2 210102Z 16014G19KT 36/15 A2982 RMK A01 T03610149  RH  028%=      5-min Rain = 0
KAM2 210103Z 16016G23KT 36/15 A2982 RMK A01 T03610149  RH  028%=      5-min Rain = 0
KAM2 210104Z 16018KT 36/15 A2982 RMK A01 T03610148  RH  028%=      5-min Rain = 0
KAM2 210105Z 16018KT 36/15 A2982 RMK A01 T03610148  RH  028%=      5-min Rain = 0
KAM2 210106Z 16015KT 36/15 A2982 RMK A01 T03610148  RH  028%=      5-min Rain = 0
KAM2 210107Z 16015G21KT 36/15 A2982 RMK A01 T03600148  RH  028%=      5-min Rain = 0
KAM2 210108Z 16013KT 36/15 A2983 RMK A01 T03600149  RH  028%=      5-min Rain = 0
KAM2 210109Z 16013G21KT 36/15 A2983 RMK A01 T03600150  RH  029%=      5-min Rain = 0
KAM2 210110Z 16017KT 36/15 A2982 RMK A01 T03590149  RH  029%=      5-min Rain = 0
KAM2 210111Z 16016KT 36/15 A2982 RMK A01 T03590149  RH  029%=      5-min Rain = 0
KAM2 210112Z 16014KT 36/15 A2982 RMK A01 T03590150  RH  029%=      5-min Rain = 0
KAM2 210113Z 16016KT 36/15 A2983 RMK A01 T03580150  RH  029%=      5-min Rain = 0
KAM2 210114Z 16016KT 36/15 A2982 RMK A01 T03570148  RH  029%=      5-min Rain = 0
KAM2 210115Z 16014KT 36/15 A2983 RMK A01 T03570149  RH  029%=      5-min Rain = 0
KAM2 210116Z 17014KT 36/15 A2983 RMK A01 T03570150  RH  029%=      5-min Rain = 0
KAM2 210117Z 16015KT 36/15 A2983 RMK A01 T03560150  RH  029%=      5-min Rain = 0
KAM2 210118Z 16014KT 36/15 A2983 RMK A01 T03560149  RH  029%=      5-min Rain = 0
KAM2 210119Z 17016KT 36/15 A2983 RMK A01 T03550149  RH  029%=      5-min Rain = 0
KAM2 210120Z 16015KT 36/15 A2983 RMK A01 T03550149  RH  029%=      5-min Rain = 0
KAM2 210121Z 16015G21KT 36/15 A2983 RMK A01 T03550149  RH  029%=      5-min Rain = 0
KAM2 210122Z 16015G20KT 36/15 A2983 RMK A01 T03550150  RH  030%=      5-min Rain = 0
KAM2 210123Z 17014KT 35/15 A2983 RMK A01 T03540150  RH  030%=      5-min Rain = 0
KAM2 210124Z 16014KT 35/15 A2983 RMK A01 T03540150  RH  030%=      5-min Rain = 0
KAM2 210125Z 17014KT 35/15 A2983 RMK A01 T03530150  RH  030%=      5-min Rain = 0
KAM2 210126Z 16014KT 35/15 A2983 RMK A01 T03530150  RH  030%=      5-min Rain = 0
KAM2 210127Z 17014KT 35/15 A2983 RMK A01 T03520150  RH  030%=      5-min Rain = 0
KAM2 210128Z 17014KT 35/15 A2983 RMK A01 T03510150  RH  030%=      5-min Rain = 0
KAM2 210129Z 16014G19KT 35/15 A2983 RMK A01 T03510149  RH  030%=      5-min Rain = 0
KAM2 210130Z 16013KT 35/15 A2983 RMK A01 T03510149  RH  030%=      5-min Rain = 0
KAM2 210131Z 16015KT 35/15 A2983 RMK A01 T03500149  RH  030%=      5-min Rain = 0
KAM2 210132Z 16015KT 35/15 A2983 RMK A01 T03500149  RH  030%=      5-min Rain = 0
KAM2 210133Z 16013KT 35/15 A2983 RMK A01 T03500149  RH  030%=      5-min Rain = 0
KAM2 210134Z 16013G18KT 35/15 A2983 RMK A01 T03490149  RH  030%=      5-min Rain = 0
KAM2 210135Z 16015KT 35/15 A2983 RMK A01 T03480149  RH  030%=      5-min Rain = 0
KAM2 210136Z 16014KT 35/15 A2983 RMK A01 T03480148  RH  030%=      5-min Rain = 0
KAM2 210137Z 16016KT 35/15 A2983 RMK A01 T03480149  RH  030%=      5-min Rain = 0
KAM2 210138Z 16015KT 35/15 A2983 RMK A01 T03480148  RH  030%=      5-min Rain = 0
KAM2 210139Z 16014KT 35/15 A2983 RMK A01 T03480148  RH  030%=      5-min Rain = 0
KAM2 210140Z 16017KT 35/15 A2983 RMK A01 T03470148  RH  030%=      5-min Rain = 0
KAM2 210141Z 16015KT 35/15 A2983 RMK A01 T03470148  RH  030%=      5-min Rain = 0
KAM2 210142Z 16014KT 35/15 A2983 RMK A01 T03470148  RH  030%=      5-min Rain = 0
KAM2 210143Z 16014KT 35/15 A2983 RMK A01 T03460148  RH  031%=      5-min Rain = 0
KAM2 210144Z 16014KT 35/15 A2983 RMK A01 T03450148  RH  031%=      5-min Rain = 0
KAM2 210145Z 16014KT 35/15 A2983 RMK A01 T03450148  RH  031%=      5-min Rain = 0
KAM2 210146Z 16013KT 35/15 A2983 RMK A01 T03450148  RH  031%=      5-min Rain = 0
KAM2 210147Z 16015KT 34/15 A2983 RMK A01 T03440148  RH  031%=      5-min Rain = 0
KAM2 210148Z 16016KT 34/15 A2983 RMK A01 T03440148  RH  031%=      5-min Rain = 0
KAM2 210149Z 16014KT 34/15 A2983 RMK A01 T03440148  RH  031%=      5-min Rain = 0
KAM2 210150Z 16016KT 34/15 A2983 RMK A01 T03430148  RH  031%=      5-min Rain = 0
KAM2 210151Z 16014KT 34/15 A2982 RMK A01 T03430147  RH  031%=      5-min Rain = 0
KAM2 210152Z 16013KT 34/15 A2983 RMK A01 T03430148  RH  031%=      5-min Rain = 0
KAM2 210153Z 16015KT 34/15 A2982 RMK A01 T03420147  RH  031%=      5-min Rain = 0
KAM2 210154Z 16015KT 34/15 A2982 RMK A01 T03410147  RH  031%=      5-min Rain = 0
KAM2 210155Z 16014KT 34/15 A2982 RMK A01 T03410148  RH  031%=      5-min Rain = 0
KAM2 210156Z 16013KT 34/15 A2983 RMK A01 T03400148  RH  032%=      5-min Rain = 0
KAM2 210157Z 16013KT 34/15 A2983 RMK A01 T03390148  RH  032%=      5-min Rain = 0
KAM2 210158Z 16012KT 34/15 A2983 RMK A01 T03380148  RH  032%=      5-min Rain = 0
KAM2 210159Z 16013G18KT 34/15 A2983 RMK A01 T03370148  RH  032%=      5-min Rain = 0
KAM2 210200Z 16015KT 34/15 A2983 RMK A01 T03360147  RH  032%=      5-min Rain = 0
KAM2 210201Z 16016KT 34/15 A2983 RMK A01 T03370147  RH  032%=      5-min Rain = 0
KAM2 210202Z 16014KT 34/15 A2983 RMK A01 T03370148  RH  032%=      5-min Rain = 0
KAM2 210203Z 16014KT 34/15 A2983 RMK A01 T03380148  RH  032%=      5-min Rain = 0
KAM2 210204Z 16015KT 34/15 A2983 RMK A01 T03380148  RH  032%=      5-min Rain = 0
KAM2 210205Z 16014KT 34/15 A2983 RMK A01 T03380148  RH  032%=      5-min Rain = 0
KAM2 210206Z 16013KT 34/15 A2983 RMK A01 T03370148  RH  032%=      5-min Rain = 0
KAM2 210207Z 16011KT 34/15 A2983 RMK A01 T03360148  RH  032%=      5-min Rain = 0
KAM2 210208Z 16012KT 34/15 A2983 RMK A01 T03360149  RH  033%=      5-min Rain = 0
KAM2 210209Z 16013KT 34/15 A2983 RMK A01 T03350149  RH  033%=      5-min Rain = 0
KAM2 210210Z 15012KT 33/15 A2983 RMK A01 T03340149  RH  033%=      5-min Rain = 0
KAM2 210211Z 16011G17KT 33/15 A2983 RMK A01 T03340149  RH  033%=      5-min Rain = 0
KAM2 210212Z 16013KT 33/15 A2983 RMK A01 T03330148  RH  033%=      5-min Rain = 0
KAM2 210213Z 16012KT 33/15 A2983 RMK A01 T03320148  RH  033%=      5-min Rain = 0
KAM2 210214Z 16013KT 33/15 A2983 RMK A01 T03320148  RH  033%=      5-min Rain = 0
KAM2 210215Z 16012KT 33/15 A2983 RMK A01 T03320148  RH  033%=      5-min Rain = 0
KAM2 210216Z 16012KT 33/15 A2983 RMK A01 T03320148  RH  033%=      5-min Rain = 0
KAM2 210217Z 16013KT 33/15 A2983 RMK A01 T03320148  RH  033%=      5-min Rain = 0
KAM2 210218Z 16012KT 33/15 A2984 RMK A01 T03320148  RH  033%=      5-min Rain = 0
KAM2 210219Z 16012KT 33/15 A2984 RMK A01 T03310148  RH  033%=      5-min Rain = 0
KAM2 210220Z 16012KT 33/15 A2984 RMK A01 T03310148  RH  033%=      5-min Rain = 0
KAM2 210221Z 16011KT 33/15 A2984 RMK A01 T03310148  RH  033%=      5-min Rain = 0
KAM2 210222Z 16012KT 33/15 A2984 RMK A01 T03300148  RH  033%=      5-min Rain = 0
KAM2 210223Z 16013KT 33/15 A2984 RMK A01 T03290148  RH  033%=      5-min Rain = 0
KAM2 210224Z 16011KT 33/15 A2984 RMK A01 T03290147  RH  033%=      5-min Rain = 0
KAM2 210225Z 15011KT 33/15 A2984 RMK A01 T03290147  RH  033%=      5-min Rain = 0
KAM2 210226Z 16012KT 33/15 A2984 RMK A01 T03290147  RH  034%=      5-min Rain = 0
KAM2 210227Z 16010KT 33/15 A2984 RMK A01 T03290147  RH  034%=      5-min Rain = 0
KAM2 210228Z 15010KT 33/15 A2984 RMK A01 T03280148  RH  034%=      5-min Rain = 0
KAM2 210229Z 16011KT 33/15 A2984 RMK A01 T03270148  RH  034%=      5-min Rain = 0
KAM2 210230Z 16010KT 33/15 A2984 RMK A01 T03260148  RH  034%=      5-min Rain = 0
KAM2 210231Z 16011KT 33/15 A2985 RMK A01 T03260148  RH  034%=      5-min Rain = 0
KAM2 210232Z 16011KT 32/15 A2985 RMK A01 T03240147  RH  034%=      5-min Rain = 0
KAM2 210233Z 16010KT 32/15 A2985 RMK A01 T03240148  RH  035%=      5-min Rain = 0
KAM2 210234Z 16011KT 32/15 A2984 RMK A01 T03240148  RH  035%=      5-min Rain = 0
KAM2 210235Z 15011KT 32/15 A2984 RMK A01 T03230148  RH  035%=      5-min Rain = 0
KAM2 210236Z 15012KT 32/15 A2984 RMK A01 T03240148  RH  035%=      5-min Rain = 0
KAM2 210237Z 15011KT 32/15 A2984 RMK A01 T03230148  RH  035%=      5-min Rain = 0
KAM2 210238Z 15012KT 32/15 A2984 RMK A01 T03230148  RH  035%=      5-min Rain = 0
KAM2 210239Z 15011KT 32/15 A2985 RMK A01 T03220148  RH  035%=      5-min Rain = 0
KAM2 210240Z 15013G18KT 32/15 A2984 RMK A01 T03220148  RH  035%=      5-min Rain = 0
KAM2 210241Z 15012KT 32/15 A2984 RMK A01 T03220148  RH  035%=      5-min Rain = 0
KAM2 210242Z 15013KT 32/15 A2985 RMK A01 T03220148  RH  035%=      5-min Rain = 0
KAM2 210243Z 15013KT 32/15 A2985 RMK A01 T03220147  RH  035%=      5-min Rain = 0
KAM2 210244Z 15012KT 32/15 A2985 RMK A01 T03230147  RH  035%=      5-min Rain = 0
KAM2 210245Z 16012KT 32/15 A2985 RMK A01 T03230148  RH  035%=      5-min Rain = 0
KAM2 210246Z 16012KT 32/15 A2985 RMK A01 T03220147  RH  035%=      5-min Rain = 0
KAM2 210247Z 15011KT 32/15 A2985 RMK A01 T03220147  RH  035%=      5-min Rain = 0
KAM2 210248Z 16012KT 32/15 A2985 RMK A01 T03210147  RH  035%=      5-min Rain = 0
KAM2 210249Z 16010KT 32/15 A2985 RMK A01 T03210147  RH  035%=      5-min Rain = 0
KAM2 210250Z 15013KT 32/15 A2985 RMK A01 T03210147  RH  035%=      5-min Rain = 0
KAM2 210251Z 15012KT 32/15 A2985 RMK A01 T03200146  RH  035%=      5-min Rain = 0
KAM2 210252Z 15012KT 32/15 A2985 RMK A01 T03210146  RH  035%=      5-min Rain = 0
KAM2 210253Z 15013KT 32/15 A2985 RMK A01 T03210146  RH  035%=      5-min Rain = 0
KAM2 210254Z 16012KT 32/15 A2985 RMK A01 T03210146  RH  035%=      5-min Rain = 0
KAM2 210255Z 15013KT 32/15 A2985 RMK A01 T03220146  RH  035%=      5-min Rain = 0
KAM2 210256Z 15013KT 32/15 A2985 RMK A01 T03220146  RH  035%=      5-min Rain = 0
KAM2 210257Z 15012KT 32/15 A2985 RMK A01 T03210146  RH  035%=      5-min Rain = 0
KAM2 210258Z 15012KT 32/15 A2985 RMK A01 T03210146  RH  035%=      5-min Rain = 0
KAM2 210259Z 16012KT 32/15 A2985 RMK A01 T03210146  RH  035%=      5-min Rain = 0
KAM2 210300Z 16012KT 32/15 A2985 RMK A01 T03200146  RH  035%=      5-min Rain = 0
KAM2 210301Z 16012KT 32/15 A2985 RMK A01 T03200146  RH  035%=      5-min Rain = 0
KAM2 210302Z 16011KT 32/15 A2985 RMK A01 T03200146  RH  035%=      5-min Rain = 0
KAM2 210303Z 15012KT 32/15 A2986 RMK A01 T03200146  RH  035%=      5-min Rain = 0
KAM2 210304Z 15012KT 32/15 A2986 RMK A01 T03190146  RH  035%=      5-min Rain = 0
KAM2 210305Z 16013KT 32/15 A2986 RMK A01 T03190145  RH  035%=      5-min Rain = 0
KAM2 210306Z 15013KT 32/15 A2986 RMK A01 T03190145  RH  035%=      5-min Rain = 0
KAM2 210307Z 15012KT 32/15 A2986 RMK A01 T03200145  RH  035%=      5-min Rain = 0
KAM2 210308Z 15013KT 32/15 A2986 RMK A01 T03200145  RH  035%=      5-min Rain = 0
KAM2 210309Z 15011KT 32/14 A2986 RMK A01 T03200144  RH  035%=      5-min Rain = 0
KAM2 210310Z 15014KT 32/15 A2986 RMK A01 T03200145  RH  035%=      5-min Rain = 0
KAM2 210311Z 15011KT 32/14 A2986 RMK A01 T03200144  RH  035%=      5-min Rain = 0
KAM2 210312Z 15013KT 32/15 A2986 RMK A01 T03200145  RH  035%=      5-min Rain = 0
KAM2 210313Z 15011KT 32/15 A2986 RMK A01 T03200145  RH  035%=      5-min Rain = 0
KAM2 210314Z 15011KT 32/15 A2986 RMK A01 T03190145  RH  035%=      5-min Rain = 0
KAM2 210315Z 15013KT 32/14 A2987 RMK A01 T03190144  RH  035%=      5-min Rain = 0
KAM2 210316Z 15011KT 32/14 A2987 RMK A01 T03190144  RH  035%=      5-min Rain = 0
KAM2 210317Z 15012KT 32/14 A2987 RMK A01 T03190144  RH  035%=      5-min Rain = 0
KAM2 210318Z 15012KT 32/15 A2987 RMK A01 T03190145  RH  035%=      5-min Rain = 0
KAM2 210319Z 16011KT 32/14 A2987 RMK A01 T03180144  RH  035%=      5-min Rain = 0
KAM2 210320Z 15011KT 32/14 A2987 RMK A01 T03170144  RH  035%=      5-min Rain = 0
KAM2 210321Z 15012KT 32/14 A2987 RMK A01 T03160144  RH  035%=      5-min Rain = 0
KAM2 210322Z 15011KT 32/15 A2987 RMK A01 T03160145  RH  035%=      5-min Rain = 0
KAM2 210323Z 16011KT 32/14 A2987 RMK A01 T03150144  RH  035%=      5-min Rain = 0
KAM2 210324Z 15012KT 32/14 A2987 RMK A01 T03150144  RH  036%=      5-min Rain = 0
KAM2 210325Z 15012KT 32/14 A2987 RMK A01 T03150144  RH  035%=      5-min Rain = 0
KAM2 210326Z 15012KT 32/14 A2987 RMK A01 T03150144  RH  035%=      5-min Rain = 0
KAM2 210327Z 16013KT 32/14 A2987 RMK A01 T03150143  RH  035%=      5-min Rain = 0
KAM2 210328Z 15012KT 32/14 A2987 RMK A01 T03160143  RH  035%=      5-min Rain = 0
KAM2 210329Z 15012KT 32/14 A2987 RMK A01 T03160143  RH  035%=      5-min Rain = 0
KAM2 210330Z 15011KT 32/14 A2987 RMK A01 T03160143  RH  035%=      5-min Rain = 0
KAM2 210331Z 15011KT 32/14 A2987 RMK A01 T03160143  RH  035%=      5-min Rain = 0
KAM2 210332Z 15013KT 32/14 A2987 RMK A01 T03160143  RH  035%=      5-min Rain = 0
KAM2 210333Z 15013KT 32/14 A2987 RMK A01 T03160142  RH  035%=      5-min Rain = 0
KAM2 210334Z 15012KT 32/14 A2988 RMK A01 T03160142  RH  035%=      5-min Rain = 0
KAM2 210335Z 15013KT 32/14 A2988 RMK A01 T03170142  RH  035%=      5-min Rain = 0
KAM2 210336Z 15012KT 32/14 A2988 RMK A01 T03170142  RH  035%=      5-min Rain = 0
KAM2 210337Z 15013KT 32/14 A2988 RMK A01 T03170142  RH  035%=      5-min Rain = 0
KAM2 210338Z 15012KT 32/14 A2988 RMK A01 T03170142  RH  035%=      5-min Rain = 0
KAM2 210339Z 15012KT 32/14 A2988 RMK A01 T03170142  RH  035%=      5-min Rain = 0
KAM2 210340Z 15013KT 32/14 A2988 RMK A01 T03160143  RH  035%=      5-min Rain = 0
KAM2 210341Z 15012KT 32/14 A2988 RMK A01 T03160142  RH  035%=      5-min Rain = 0
KAM2 210342Z 15012KT 32/14 A2988 RMK A01 T03160142  RH  035%=      5-min Rain = 0
KAM2 210343Z 15013G19KT 32/14 A2988 RMK A01 T03160142  RH  035%=      5-min Rain = 0
KAM2 210344Z 15012KT 32/14 A2988 RMK A01 T03150142  RH  035%=      5-min Rain = 0
KAM2 210345Z 15012KT 32/14 A2988 RMK A01 T03150143  RH  035%=      5-min Rain = 0
KAM2 210346Z 15013KT 31/14 A2988 RMK A01 T03140142  RH  035%=      5-min Rain = 0
KAM2 210347Z 15013KT 31/14 A2988 RMK A01 T03140142  RH  035%=      5-min Rain = 0
KAM2 210348Z 15012KT 31/14 A2988 RMK A01 T03140142  RH  035%=      5-min Rain = 0
KAM2 210349Z 15013KT 31/14 A2988 RMK A01 T03140142  RH  035%=      5-min Rain = 0
KAM2 210350Z 15012KT 31/14 A2988 RMK A01 T03140143  RH  035%=      5-min Rain = 0
KAM2 210351Z 15011KT 31/14 A2988 RMK A01 T03140143  RH  035%=      5-min Rain = 0
KAM2 210352Z 15012KT 31/14 A2988 RMK A01 T03130143  RH  035%=      5-min Rain = 0
KAM2 210353Z 15012KT 31/14 A2988 RMK A01 T03130143  RH  035%=      5-min Rain = 0
KAM2 210354Z 15013KT 31/14 A2988 RMK A01 T03130143  RH  035%=      5-min Rain = 0
KAM2 210355Z 15011KT 31/14 A2988 RMK A01 T03130143  RH  036%=      5-min Rain = 0
KAM2 210356Z 14012KT 31/14 A2988 RMK A01 T03130143  RH  036%=      5-min Rain = 0
KAM2 210357Z 15014KT 31/14 A2988 RMK A01 T03130143  RH  036%=      5-min Rain = 0
KAM2 210358Z 15012G17KT 31/14 A2988 RMK A01 T03120143  RH  036%=      5-min Rain = 0
KAM2 210359Z 15014KT 31/14 A2989 RMK A01 T03110143  RH  036%=      5-min Rain = 0
KAM2 210400Z 15013KT 31/14 A2989 RMK A01 T03110143  RH  036%=      5-min Rain = 0
KAM2 210401Z 14012KT 31/14 A2989 RMK A01 T03110143  RH  036%=      5-min Rain = 0
KAM2 210402Z 14011KT 31/14 A2989 RMK A01 T03100144  RH  036%=      5-min Rain = 0
KAM2 210403Z 14010KT 31/14 A2989 RMK A01 T03080144  RH  037%=      5-min Rain = 0
KAM2 210404Z 14010KT 31/14 A2989 RMK A01 T03070144  RH  037%=      5-min Rain = 0
KAM2 210405Z 14010KT 31/14 A2989 RMK A01 T03060144  RH  037%=      5-min Rain = 0
KAM2 210406Z 14009KT 30/14 A2989 RMK A01 T03040144  RH  038%=      5-min Rain = 0
KAM2 210407Z 14010KT 30/15 A2989 RMK A01 T03030145  RH  038%=      5-min Rain = 0
KAM2 210408Z 14010KT 30/14 A2989 RMK A01 T03020144  RH  038%=      5-min Rain = 0
KAM2 210409Z 15010KT 30/15 A2989 RMK A01 T03010145  RH  039%=      5-min Rain = 0
KAM2 210410Z 15010KT 30/14 A2989 RMK A01 T03000144  RH  039%=      5-min Rain = 0
KAM2 210411Z 15013KT 30/14 A2989 RMK A01 T03000144  RH  039%=      5-min Rain = 0
KAM2 210412Z 15010KT 30/14 A2989 RMK A01 T03000144  RH  039%=      5-min Rain = 0
KAM2 210413Z 15012KT 30/15 A2989 RMK A01 T03000145  RH  039%=      5-min Rain = 0
KAM2 210414Z 15010KT 30/15 A2989 RMK A01 T03000145  RH  039%=      5-min Rain = 0
KAM2 210415Z 15010KT 30/15 A2989 RMK A01 T03000145  RH  039%=      5-min Rain = 0
KAM2 210416Z 15012KT 30/15 A2989 RMK A01 T03000146  RH  039%=      5-min Rain = 0
KAM2 210417Z 15012KT 30/15 A2989 RMK A01 T03000147  RH  039%=      5-min Rain = 0
KAM2 210418Z 15011KT 30/15 A2989 RMK A01 T03000147  RH  039%=      5-min Rain = 0
KAM2 210419Z 14014KT 30/15 A2989 RMK A01 T03000148  RH  040%=      5-min Rain = 0
KAM2 210420Z 15013G18KT 30/15 A2989 RMK A01 T03000148  RH  040%=      5-min Rain = 0
KAM2 210421Z 14014KT 30/15 A2989 RMK A01 T03010149  RH  040%=      5-min Rain = 0
KAM2 210422Z 15013KT 30/15 A2989 RMK A01 T03010149  RH  040%=      5-min Rain = 0
KAM2 210423Z 15011KT 30/15 A2989 RMK A01 T03020150  RH  040%=      5-min Rain = 0
KAM2 210424Z 14012KT 30/15 A2989 RMK A01 T03020150  RH  040%=      5-min Rain = 0
KAM2 210425Z 15013KT 30/15 A2989 RMK A01 T03020151  RH  040%=      5-min Rain = 0
KAM2 210426Z 15012G17KT 30/15 A2989 RMK A01 T03020152  RH  040%=      5-min Rain = 0
KAM2 210427Z 15014KT 30/15 A2989 RMK A01 T03010152  RH  040%=      5-min Rain = 0
KAM2 210428Z 15014KT 30/15 A2989 RMK A01 T03020152  RH  040%=      5-min Rain = 0
KAM2 210429Z 15014KT 30/15 A2989 RMK A01 T03020153  RH  040%=      5-min Rain = 0
KAM2 210430Z 15012KT 30/15 A2989 RMK A01 T03030153  RH  040%=      5-min Rain = 0
KAM2 210431Z 15013KT 30/15 A2989 RMK A01 T03030154  RH  040%=      5-min Rain = 0
KAM2 210432Z 15015KT 30/15 A2989 RMK A01 T03020154  RH  041%=      5-min Rain = 0
KAM2 210433Z 15016KT 30/15 A2989 RMK A01 T03020154  RH  041%=      5-min Rain = 0
KAM2 210434Z 15014KT 30/15 A2989 RMK A01 T03020154  RH  041%=      5-min Rain = 0
KAM2 210435Z 15012KT 30/15 A2989 RMK A01 T03020154  RH  041%=      5-min Rain = 0
KAM2 210436Z 16014KT 30/16 A2989 RMK A01 T03020155  RH  041%=      5-min Rain = 0
KAM2 210437Z 15017KT 30/16 A2989 RMK A01 T03020155  RH  041%=      5-min Rain = 0
KAM2 210438Z 15015G20KT 30/15 A2989 RMK A01 T03020154  RH  041%=      5-min Rain = 0
KAM2 210439Z 15016KT 30/16 A2989 RMK A01 T03020155  RH  041%=      5-min Rain = 0
KAM2 210440Z 15013KT 30/16 A2989 RMK A01 T03020156  RH  041%=      5-min Rain = 0
KAM2 210441Z 15014KT 30/16 A2989 RMK A01 T03010155  RH  041%=      5-min Rain = 0
KAM2 210442Z 15014KT 30/16 A2989 RMK A01 T03010156  RH  041%=      5-min Rain = 0
KAM2 210443Z 15013KT 30/16 A2989 RMK A01 T03010156  RH  042%=      5-min Rain = 0
KAM2 210444Z 15015G20KT 30/16 A2989 RMK A01 T03000156  RH  042%=      5-min Rain = 0
KAM2 210445Z 16014KT 30/16 A2989 RMK A01 T03000156  RH  042%=      5-min Rain = 0
KAM2 210446Z 15014KT 30/16 A2989 RMK A01 T03000156  RH  042%=      5-min Rain = 0
KAM2 210447Z 15013KT 30/16 A2989 RMK A01 T03000156  RH  042%=      5-min Rain = 0
KAM2 210448Z 15014KT 30/16 A2989 RMK A01 T03000157  RH  042%=      5-min Rain = 0
KAM2 210449Z 16017KT 30/16 A2989 RMK A01 T03000157  RH  042%=      5-min Rain = 0
KAM2 210450Z 15016G21KT 30/16 A2989 RMK A01 T03000156  RH  042%=      5-min Rain = 0
KAM2 210451Z 16018KT 30/16 A2989 RMK A01 T03000157  RH  042%=      5-min Rain = 0
KAM2 210452Z 15017KT 30/16 A2989 RMK A01 T03010157  RH  042%=      5-min Rain = 0
KAM2 210453Z 15015KT 30/16 A2989 RMK A01 T03010157  RH  042%=      5-min Rain = 0
KAM2 210454Z 15016KT 30/16 A2989 RMK A01 T03000157  RH  042%=      5-min Rain = 0
KAM2 210455Z 16016KT 30/16 A2989 RMK A01 T03000157  RH  042%=      5-min Rain = 0
KAM2 210456Z 15016KT 30/16 A2989 RMK A01 T03000158  RH  042%=      5-min Rain = 0
KAM2 210457Z 16013KT 30/16 A299 RMK A01 T03000157  RH  042%=      5-min Rain = 0
KAM2 210458Z 15015KT 30/16 A299 RMK A01 T03000158  RH  042%=      5-min Rain = 0
KAM2 210459Z 15016G21KT 30/16 A299 RMK A01 T03000159  RH  043%=      5-min Rain = 0

Page generated in 0.1224 seconds.